<?xml version="1.0" encoding="UTF-8" standalone="no" ?>
<gpx xmlns="http://www.topografix.com/GPX/1/1" xmlns:xsi="http://www.w3.org/2001/XMLSchema-instance" xsi:schemaLocation="http://www.topografix.com/GPX/1/1 http://www.topografix.com/GPX/1/1/gpx.xsd" version="1.1" creator="VisuGPX - https://www.visugpx.com">
  <metadata>
    <name>borderouge</name>
    <desc><![CDATA[belle balade a faire dans la belle ville de Toulouse .]]></desc>
  </metadata>
  <trk>
    <name><![CDATA[Parcours VTT..gpx]]></name>
    <trkseg>
      <trkpt lat="43.63038" lon="1.44553">
        <ele>137</ele>
        <time>2018-04-17T09:26:51Z</time>
      </trkpt>
      <trkpt lat="43.63033" lon="1.44541">
        <ele>74.029</ele>
        <time>2018-04-17T09:27:03Z</time>
      </trkpt>
      <trkpt lat="43.63028" lon="1.44526">
        <ele>74.007</ele>
        <time>2018-04-17T09:27:08Z</time>
      </trkpt>
      <trkpt lat="43.6301" lon="1.44537">
        <ele>74.161</ele>
        <time>2018-04-17T09:27:13Z</time>
      </trkpt>
      <trkpt lat="43.62994" lon="1.44549">
        <ele>74.166</ele>
        <time>2018-04-17T09:27:18Z</time>
      </trkpt>
      <trkpt lat="43.62973" lon="1.44552">
        <ele>74.002</ele>
        <time>2018-04-17T09:27:23Z</time>
      </trkpt>
      <trkpt lat="43.62965" lon="1.44526">
        <ele>73.067</ele>
        <time>2018-04-17T09:27:28Z</time>
      </trkpt>
      <trkpt lat="43.62949" lon="1.44515">
        <ele>73.421</ele>
        <time>2018-04-17T09:27:33Z</time>
      </trkpt>
      <trkpt lat="43.62929" lon="1.44514">
        <ele>73.249</ele>
        <time>2018-04-17T09:27:38Z</time>
      </trkpt>
      <trkpt lat="43.62907" lon="1.44516">
        <ele>73.228</ele>
        <time>2018-04-17T09:27:42Z</time>
      </trkpt>
      <trkpt lat="43.62887" lon="1.44514">
        <ele>73.891</ele>
        <time>2018-04-17T09:27:47Z</time>
      </trkpt>
      <trkpt lat="43.6287" lon="1.44529">
        <ele>74.613</ele>
        <time>2018-04-17T09:27:52Z</time>
      </trkpt>
      <trkpt lat="43.62867" lon="1.44559">
        <ele>74.811</ele>
        <time>2018-04-17T09:27:57Z</time>
      </trkpt>
      <trkpt lat="43.62863" lon="1.44587">
        <ele>74.76</ele>
        <time>2018-04-17T09:28:02Z</time>
      </trkpt>
      <trkpt lat="43.62848" lon="1.4459">
        <ele>75.191</ele>
        <time>2018-04-17T09:28:07Z</time>
      </trkpt>
      <trkpt lat="43.62827" lon="1.44587">
        <ele>74.573</ele>
        <time>2018-04-17T09:28:12Z</time>
      </trkpt>
      <trkpt lat="43.62805" lon="1.44582">
        <ele>74.56</ele>
        <time>2018-04-17T09:28:18Z</time>
      </trkpt>
      <trkpt lat="43.62785" lon="1.44577">
        <ele>74.557</ele>
        <time>2018-04-17T09:28:23Z</time>
      </trkpt>
      <trkpt lat="43.62764" lon="1.44574">
        <ele>74.681</ele>
        <time>2018-04-17T09:28:28Z</time>
      </trkpt>
      <trkpt lat="43.62742" lon="1.44558">
        <ele>74.655</ele>
        <time>2018-04-17T09:28:33Z</time>
      </trkpt>
      <trkpt lat="43.62713" lon="1.44555">
        <ele>74.335</ele>
        <time>2018-04-17T09:28:38Z</time>
      </trkpt>
      <trkpt lat="43.62701" lon="1.44537">
        <ele>74.705</ele>
        <time>2018-04-17T09:28:43Z</time>
      </trkpt>
      <trkpt lat="43.62688" lon="1.445">
        <ele>75.794</ele>
        <time>2018-04-17T09:28:52Z</time>
      </trkpt>
      <trkpt lat="43.62679" lon="1.44465">
        <ele>74.578</ele>
        <time>2018-04-17T09:28:57Z</time>
      </trkpt>
      <trkpt lat="43.62658" lon="1.44451">
        <ele>74.443</ele>
        <time>2018-04-17T09:29:02Z</time>
      </trkpt>
      <trkpt lat="43.62635" lon="1.44454">
        <ele>74.274</ele>
        <time>2018-04-17T09:29:07Z</time>
      </trkpt>
      <trkpt lat="43.62611" lon="1.44466">
        <ele>74.871</ele>
        <time>2018-04-17T09:29:12Z</time>
      </trkpt>
      <trkpt lat="43.62592" lon="1.44487">
        <ele>74.258</ele>
        <time>2018-04-17T09:29:17Z</time>
      </trkpt>
      <trkpt lat="43.62574" lon="1.44508">
        <ele>74.383</ele>
        <time>2018-04-17T09:29:22Z</time>
      </trkpt>
      <trkpt lat="43.62556" lon="1.44529">
        <ele>74.483</ele>
        <time>2018-04-17T09:29:27Z</time>
      </trkpt>
      <trkpt lat="43.62539" lon="1.44547">
        <ele>74.787</ele>
        <time>2018-04-17T09:29:32Z</time>
      </trkpt>
      <trkpt lat="43.6252" lon="1.44562">
        <ele>75.162</ele>
        <time>2018-04-17T09:29:37Z</time>
      </trkpt>
      <trkpt lat="43.62498" lon="1.4457">
        <ele>75.418</ele>
        <time>2018-04-17T09:29:42Z</time>
      </trkpt>
      <trkpt lat="43.62476" lon="1.44572">
        <ele>74.845</ele>
        <time>2018-04-17T09:29:47Z</time>
      </trkpt>
      <trkpt lat="43.62452" lon="1.44573">
        <ele>75.754</ele>
        <time>2018-04-17T09:29:52Z</time>
      </trkpt>
      <trkpt lat="43.6243" lon="1.44574">
        <ele>76.301</ele>
        <time>2018-04-17T09:29:57Z</time>
      </trkpt>
      <trkpt lat="43.62406" lon="1.44575">
        <ele>76.103</ele>
        <time>2018-04-17T09:30:02Z</time>
      </trkpt>
      <trkpt lat="43.62383" lon="1.44576">
        <ele>76.05</ele>
        <time>2018-04-17T09:30:07Z</time>
      </trkpt>
      <trkpt lat="43.62361" lon="1.44577">
        <ele>75.545</ele>
        <time>2018-04-17T09:30:12Z</time>
      </trkpt>
      <trkpt lat="43.62339" lon="1.44576">
        <ele>75.199</ele>
        <time>2018-04-17T09:30:17Z</time>
      </trkpt>
      <trkpt lat="43.62316" lon="1.44575">
        <ele>75.194</ele>
        <time>2018-04-17T09:30:22Z</time>
      </trkpt>
      <trkpt lat="43.62293" lon="1.44571">
        <ele>76.103</ele>
        <time>2018-04-17T09:30:27Z</time>
      </trkpt>
      <trkpt lat="43.62268" lon="1.44568">
        <ele>76.245</ele>
        <time>2018-04-17T09:30:32Z</time>
      </trkpt>
      <trkpt lat="43.6224" lon="1.44564">
        <ele>76.185</ele>
        <time>2018-04-17T09:30:37Z</time>
      </trkpt>
      <trkpt lat="43.62215" lon="1.44568">
        <ele>76.134</ele>
        <time>2018-04-17T09:30:42Z</time>
      </trkpt>
      <trkpt lat="43.62188" lon="1.44571">
        <ele>75.971</ele>
        <time>2018-04-17T09:30:47Z</time>
      </trkpt>
      <trkpt lat="43.62157" lon="1.44575">
        <ele>75.64</ele>
        <time>2018-04-17T09:30:55Z</time>
      </trkpt>
      <trkpt lat="43.62132" lon="1.44579">
        <ele>76.51</ele>
        <time>2018-04-17T09:31:00Z</time>
      </trkpt>
      <trkpt lat="43.62104" lon="1.44585">
        <ele>76.581</ele>
        <time>2018-04-17T09:31:05Z</time>
      </trkpt>
      <trkpt lat="43.62082" lon="1.44595">
        <ele>76.539</ele>
        <time>2018-04-17T09:31:10Z</time>
      </trkpt>
      <trkpt lat="43.62059" lon="1.44605">
        <ele>76.169</ele>
        <time>2018-04-17T09:31:15Z</time>
      </trkpt>
      <trkpt lat="43.62038" lon="1.44615">
        <ele>76.045</ele>
        <time>2018-04-17T09:31:20Z</time>
      </trkpt>
      <trkpt lat="43.62015" lon="1.44625">
        <ele>76.37</ele>
        <time>2018-04-17T09:31:25Z</time>
      </trkpt>
      <trkpt lat="43.61993" lon="1.44634">
        <ele>76.372</ele>
        <time>2018-04-17T09:31:30Z</time>
      </trkpt>
      <trkpt lat="43.6197" lon="1.44641">
        <ele>76.671</ele>
        <time>2018-04-17T09:31:35Z</time>
      </trkpt>
      <trkpt lat="43.61947" lon="1.44637">
        <ele>76.605</ele>
        <time>2018-04-17T09:31:40Z</time>
      </trkpt>
      <trkpt lat="43.61925" lon="1.44629">
        <ele>76.422</ele>
        <time>2018-04-17T09:31:45Z</time>
      </trkpt>
      <trkpt lat="43.61904" lon="1.44621">
        <ele>76.356</ele>
        <time>2018-04-17T09:31:50Z</time>
      </trkpt>
      <trkpt lat="43.61886" lon="1.446">
        <ele>76.182</ele>
        <time>2018-04-17T09:31:55Z</time>
      </trkpt>
      <trkpt lat="43.61861" lon="1.44588">
        <ele>76.605</ele>
        <time>2018-04-17T09:32:00Z</time>
      </trkpt>
      <trkpt lat="43.61839" lon="1.44573">
        <ele>76.613</ele>
        <time>2018-04-17T09:32:05Z</time>
      </trkpt>
      <trkpt lat="43.61818" lon="1.44556">
        <ele>76.901</ele>
        <time>2018-04-17T09:32:10Z</time>
      </trkpt>
      <trkpt lat="43.618" lon="1.4454">
        <ele>76.666</ele>
        <time>2018-04-17T09:32:15Z</time>
      </trkpt>
      <trkpt lat="43.61783" lon="1.44516">
        <ele>77.342</ele>
        <time>2018-04-17T09:32:20Z</time>
      </trkpt>
      <trkpt lat="43.61765" lon="1.44497">
        <ele>77.746</ele>
        <time>2018-04-17T09:32:25Z</time>
      </trkpt>
      <trkpt lat="43.61746" lon="1.44479">
        <ele>76.647</ele>
        <time>2018-04-17T09:32:30Z</time>
      </trkpt>
      <trkpt lat="43.61727" lon="1.44462">
        <ele>77.078</ele>
        <time>2018-04-17T09:32:35Z</time>
      </trkpt>
      <trkpt lat="43.61708" lon="1.44445">
        <ele>76.724</ele>
        <time>2018-04-17T09:32:40Z</time>
      </trkpt>
      <trkpt lat="43.61693" lon="1.44433">
        <ele>77.006</ele>
        <time>2018-04-17T09:32:45Z</time>
      </trkpt>
      <trkpt lat="43.61675" lon="1.44414">
        <ele>76.922</ele>
        <time>2018-04-17T09:32:50Z</time>
      </trkpt>
      <trkpt lat="43.61655" lon="1.44399">
        <ele>77.009</ele>
        <time>2018-04-17T09:32:55Z</time>
      </trkpt>
      <trkpt lat="43.61633" lon="1.4439">
        <ele>76.821</ele>
        <time>2018-04-17T09:33:00Z</time>
      </trkpt>
      <trkpt lat="43.61604" lon="1.44389">
        <ele>76.922</ele>
        <time>2018-04-17T09:33:05Z</time>
      </trkpt>
      <trkpt lat="43.6158" lon="1.44395">
        <ele>76.777</ele>
        <time>2018-04-17T09:33:10Z</time>
      </trkpt>
      <trkpt lat="43.61557" lon="1.44398">
        <ele>76.589</ele>
        <time>2018-04-17T09:33:15Z</time>
      </trkpt>
      <trkpt lat="43.61538" lon="1.44407">
        <ele>77.374</ele>
        <time>2018-04-17T09:33:24Z</time>
      </trkpt>
      <trkpt lat="43.61529" lon="1.44403">
        <ele>77.968</ele>
        <time>2018-04-17T09:33:34Z</time>
      </trkpt>
      <trkpt lat="43.61532" lon="1.44382">
        <ele>77.844</ele>
        <time>2018-04-17T09:33:39Z</time>
      </trkpt>
      <trkpt lat="43.6153" lon="1.44368">
        <ele>77.297</ele>
        <time>2018-04-17T09:33:44Z</time>
      </trkpt>
      <trkpt lat="43.61527" lon="1.44347">
        <ele>78.222</ele>
        <time>2018-04-17T09:33:49Z</time>
      </trkpt>
      <trkpt lat="43.61528" lon="1.44317">
        <ele>77.971</ele>
        <time>2018-04-17T09:33:54Z</time>
      </trkpt>
      <trkpt lat="43.6153" lon="1.44283">
        <ele>78.351</ele>
        <time>2018-04-17T09:33:59Z</time>
      </trkpt>
      <trkpt lat="43.61541" lon="1.44252">
        <ele>78.465</ele>
        <time>2018-04-17T09:34:04Z</time>
      </trkpt>
      <trkpt lat="43.61548" lon="1.4422">
        <ele>78.679</ele>
        <time>2018-04-17T09:34:09Z</time>
      </trkpt>
      <trkpt lat="43.61557" lon="1.44187">
        <ele>78.66</ele>
        <time>2018-04-17T09:34:14Z</time>
      </trkpt>
      <trkpt lat="43.6158" lon="1.44142">
        <ele>79.813</ele>
        <time>2018-04-17T09:34:23Z</time>
      </trkpt>
      <trkpt lat="43.61592" lon="1.44106">
        <ele>78.333</ele>
        <time>2018-04-17T09:34:28Z</time>
      </trkpt>
      <trkpt lat="43.61602" lon="1.44071">
        <ele>78.335</ele>
        <time>2018-04-17T09:34:33Z</time>
      </trkpt>
      <trkpt lat="43.61612" lon="1.44036">
        <ele>78.462</ele>
        <time>2018-04-17T09:34:38Z</time>
      </trkpt>
      <trkpt lat="43.61623" lon="1.44002">
        <ele>78.647</ele>
        <time>2018-04-17T09:34:43Z</time>
      </trkpt>
      <trkpt lat="43.61633" lon="1.43971">
        <ele>78.354</ele>
        <time>2018-04-17T09:34:48Z</time>
      </trkpt>
      <trkpt lat="43.61643" lon="1.43939">
        <ele>78.322</ele>
        <time>2018-04-17T09:34:53Z</time>
      </trkpt>
      <trkpt lat="43.61647" lon="1.43901">
        <ele>77.979</ele>
        <time>2018-04-17T09:34:58Z</time>
      </trkpt>
      <trkpt lat="43.61646" lon="1.43864">
        <ele>78.61</ele>
        <time>2018-04-17T09:35:03Z</time>
      </trkpt>
      <trkpt lat="43.61644" lon="1.43825">
        <ele>78.742</ele>
        <time>2018-04-17T09:35:08Z</time>
      </trkpt>
      <trkpt lat="43.61632" lon="1.4378">
        <ele>78.338</ele>
        <time>2018-04-17T09:35:13Z</time>
      </trkpt>
      <trkpt lat="43.61621" lon="1.43733">
        <ele>77.062</ele>
        <time>2018-04-17T09:35:18Z</time>
      </trkpt>
      <trkpt lat="43.61614" lon="1.43688">
        <ele>77.109</ele>
        <time>2018-04-17T09:35:23Z</time>
      </trkpt>
      <trkpt lat="43.61605" lon="1.43643">
        <ele>77.712</ele>
        <time>2018-04-17T09:35:28Z</time>
      </trkpt>
      <trkpt lat="43.61597" lon="1.43599">
        <ele>76.792</ele>
        <time>2018-04-17T09:35:33Z</time>
      </trkpt>
      <trkpt lat="43.6159" lon="1.43556">
        <ele>76.145</ele>
        <time>2018-04-17T09:35:38Z</time>
      </trkpt>
      <trkpt lat="43.61581" lon="1.43513">
        <ele>75.516</ele>
        <time>2018-04-17T09:35:43Z</time>
      </trkpt>
      <trkpt lat="43.61568" lon="1.43471">
        <ele>75.677</ele>
        <time>2018-04-17T09:35:48Z</time>
      </trkpt>
      <trkpt lat="43.61551" lon="1.43433">
        <ele>75.469</ele>
        <time>2018-04-17T09:35:53Z</time>
      </trkpt>
      <trkpt lat="43.61532" lon="1.43393">
        <ele>76.14</ele>
        <time>2018-04-17T09:35:58Z</time>
      </trkpt>
      <trkpt lat="43.61513" lon="1.43357">
        <ele>75.13</ele>
        <time>2018-04-17T09:36:03Z</time>
      </trkpt>
      <trkpt lat="43.61494" lon="1.43322">
        <ele>75.342</ele>
        <time>2018-04-17T09:36:08Z</time>
      </trkpt>
      <trkpt lat="43.61473" lon="1.43291">
        <ele>75.07</ele>
        <time>2018-04-17T09:36:13Z</time>
      </trkpt>
      <trkpt lat="43.61453" lon="1.43262">
        <ele>74.832</ele>
        <time>2018-04-17T09:36:18Z</time>
      </trkpt>
      <trkpt lat="43.61433" lon="1.43231">
        <ele>74.351</ele>
        <time>2018-04-17T09:36:23Z</time>
      </trkpt>
      <trkpt lat="43.61414" lon="1.43198">
        <ele>74.496</ele>
        <time>2018-04-17T09:36:28Z</time>
      </trkpt>
      <trkpt lat="43.61396" lon="1.43166">
        <ele>74.446</ele>
        <time>2018-04-17T09:36:33Z</time>
      </trkpt>
      <trkpt lat="43.61379" lon="1.43136">
        <ele>74.443</ele>
        <time>2018-04-17T09:36:38Z</time>
      </trkpt>
      <trkpt lat="43.61365" lon="1.43094">
        <ele>74.557</ele>
        <time>2018-04-17T09:36:45Z</time>
      </trkpt>
      <trkpt lat="43.61352" lon="1.43057">
        <ele>74.219</ele>
        <time>2018-04-17T09:36:50Z</time>
      </trkpt>
      <trkpt lat="43.61341" lon="1.43014">
        <ele>75.109</ele>
        <time>2018-04-17T09:36:55Z</time>
      </trkpt>
      <trkpt lat="43.61331" lon="1.42978">
        <ele>75.009</ele>
        <time>2018-04-17T09:37:00Z</time>
      </trkpt>
      <trkpt lat="43.61317" lon="1.42936">
        <ele>75.101</ele>
        <time>2018-04-17T09:37:05Z</time>
      </trkpt>
      <trkpt lat="43.61306" lon="1.42892">
        <ele>75.212</ele>
        <time>2018-04-17T09:37:10Z</time>
      </trkpt>
      <trkpt lat="43.6129" lon="1.42849">
        <ele>75.144</ele>
        <time>2018-04-17T09:37:15Z</time>
      </trkpt>
      <trkpt lat="43.61279" lon="1.42809">
        <ele>75.096</ele>
        <time>2018-04-17T09:37:20Z</time>
      </trkpt>
      <trkpt lat="43.61272" lon="1.42769">
        <ele>74.755</ele>
        <time>2018-04-17T09:37:25Z</time>
      </trkpt>
      <trkpt lat="43.61264" lon="1.42727">
        <ele>75.617</ele>
        <time>2018-04-17T09:37:30Z</time>
      </trkpt>
      <trkpt lat="43.61256" lon="1.42684">
        <ele>74.639</ele>
        <time>2018-04-17T09:37:35Z</time>
      </trkpt>
      <trkpt lat="43.61248" lon="1.42643">
        <ele>74.634</ele>
        <time>2018-04-17T09:37:40Z</time>
      </trkpt>
      <trkpt lat="43.61242" lon="1.4261">
        <ele>73.852</ele>
        <time>2018-04-17T09:37:45Z</time>
      </trkpt>
      <trkpt lat="43.61236" lon="1.42583">
        <ele>73.373</ele>
        <time>2018-04-17T09:37:50Z</time>
      </trkpt>
      <trkpt lat="43.61232" lon="1.42557">
        <ele>73.159</ele>
        <time>2018-04-17T09:37:55Z</time>
      </trkpt>
      <trkpt lat="43.61229" lon="1.42539">
        <ele>72.84</ele>
        <time>2018-04-17T09:38:00Z</time>
      </trkpt>
      <trkpt lat="43.61227" lon="1.42531">
        <ele>72.956</ele>
        <time>2018-04-17T09:38:05Z</time>
      </trkpt>
      <trkpt lat="43.61227" lon="1.42503">
        <ele>73.389</ele>
        <time>2018-04-17T09:38:10Z</time>
      </trkpt>
      <trkpt lat="43.61217" lon="1.42467">
        <ele>72.639</ele>
        <time>2018-04-17T09:38:15Z</time>
      </trkpt>
      <trkpt lat="43.6121" lon="1.42418">
        <ele>72.258</ele>
        <time>2018-04-17T09:38:20Z</time>
      </trkpt>
      <trkpt lat="43.612" lon="1.42372">
        <ele>71.939</ele>
        <time>2018-04-17T09:38:25Z</time>
      </trkpt>
      <trkpt lat="43.61191" lon="1.42326">
        <ele>72.028</ele>
        <time>2018-04-17T09:38:30Z</time>
      </trkpt>
      <trkpt lat="43.61182" lon="1.42284">
        <ele>71.64</ele>
        <time>2018-04-17T09:38:35Z</time>
      </trkpt>
      <trkpt lat="43.61175" lon="1.42253">
        <ele>70.107</ele>
        <time>2018-04-17T09:38:40Z</time>
      </trkpt>
      <trkpt lat="43.61171" lon="1.42221">
        <ele>71.18</ele>
        <time>2018-04-17T09:38:45Z</time>
      </trkpt>
      <trkpt lat="43.61164" lon="1.4218">
        <ele>71.669</ele>
        <time>2018-04-17T09:38:50Z</time>
      </trkpt>
      <trkpt lat="43.61158" lon="1.42137">
        <ele>71.785</ele>
        <time>2018-04-17T09:38:55Z</time>
      </trkpt>
      <trkpt lat="43.61151" lon="1.42096">
        <ele>72.766</ele>
        <time>2018-04-17T09:39:00Z</time>
      </trkpt>
      <trkpt lat="43.61145" lon="1.42053">
        <ele>72.05</ele>
        <time>2018-04-17T09:39:05Z</time>
      </trkpt>
      <trkpt lat="43.61134" lon="1.42009">
        <ele>69.888</ele>
        <time>2018-04-17T09:39:12Z</time>
      </trkpt>
      <trkpt lat="43.61131" lon="1.42">
        <ele>70.023</ele>
        <time>2018-04-17T09:39:17Z</time>
      </trkpt>
      <trkpt lat="43.61133" lon="1.41987">
        <ele>70.364</ele>
        <time>2018-04-17T09:39:22Z</time>
      </trkpt>
      <trkpt lat="43.61129" lon="1.41952">
        <ele>71.939</ele>
        <time>2018-04-17T09:39:27Z</time>
      </trkpt>
      <trkpt lat="43.61124" lon="1.41921">
        <ele>72.396</ele>
        <time>2018-04-17T09:39:32Z</time>
      </trkpt>
      <trkpt lat="43.61123" lon="1.41889">
        <ele>73.45</ele>
        <time>2018-04-17T09:39:37Z</time>
      </trkpt>
      <trkpt lat="43.6112" lon="1.41861">
        <ele>74.57</ele>
        <time>2018-04-17T09:39:42Z</time>
      </trkpt>
      <trkpt lat="43.61124" lon="1.41831">
        <ele>74.515</ele>
        <time>2018-04-17T09:39:47Z</time>
      </trkpt>
      <trkpt lat="43.61129" lon="1.41801">
        <ele>73.809</ele>
        <time>2018-04-17T09:39:52Z</time>
      </trkpt>
      <trkpt lat="43.61128" lon="1.41772">
        <ele>74.01</ele>
        <time>2018-04-17T09:39:57Z</time>
      </trkpt>
      <trkpt lat="43.6112" lon="1.4173">
        <ele>73.429</ele>
        <time>2018-04-17T09:40:02Z</time>
      </trkpt>
      <trkpt lat="43.61103" lon="1.41688">
        <ele>72.454</ele>
        <time>2018-04-17T09:40:07Z</time>
      </trkpt>
      <trkpt lat="43.61086" lon="1.41648">
        <ele>70.903</ele>
        <time>2018-04-17T09:40:12Z</time>
      </trkpt>
      <trkpt lat="43.61076" lon="1.41609">
        <ele>70.253</ele>
        <time>2018-04-17T09:40:17Z</time>
      </trkpt>
      <trkpt lat="43.61066" lon="1.41578">
        <ele>70.078</ele>
        <time>2018-04-17T09:40:22Z</time>
      </trkpt>
      <trkpt lat="43.6105" lon="1.41556">
        <ele>70.023</ele>
        <time>2018-04-17T09:40:27Z</time>
      </trkpt>
      <trkpt lat="43.61037" lon="1.41526">
        <ele>70.316</ele>
        <time>2018-04-17T09:40:32Z</time>
      </trkpt>
      <trkpt lat="43.61031" lon="1.41496">
        <ele>70.715</ele>
        <time>2018-04-17T09:40:37Z</time>
      </trkpt>
      <trkpt lat="43.61057" lon="1.41476">
        <ele>70.958</ele>
        <time>2018-04-17T09:40:43Z</time>
      </trkpt>
      <trkpt lat="43.61082" lon="1.4149">
        <ele>70.181</ele>
        <time>2018-04-17T09:40:48Z</time>
      </trkpt>
      <trkpt lat="43.61119" lon="1.41482">
        <ele>67.328</ele>
        <time>2018-04-17T09:40:55Z</time>
      </trkpt>
      <trkpt lat="43.61135" lon="1.41491">
        <ele>69.014</ele>
        <time>2018-04-17T09:41:00Z</time>
      </trkpt>
      <trkpt lat="43.61142" lon="1.41454">
        <ele>69.928</ele>
        <time>2018-04-17T09:41:05Z</time>
      </trkpt>
      <trkpt lat="43.61118" lon="1.41433">
        <ele>71.5</ele>
        <time>2018-04-17T09:41:10Z</time>
      </trkpt>
      <trkpt lat="43.61091" lon="1.41431">
        <ele>70.58</ele>
        <time>2018-04-17T09:41:15Z</time>
      </trkpt>
      <trkpt lat="43.61068" lon="1.41414">
        <ele>69.97</ele>
        <time>2018-04-17T09:41:20Z</time>
      </trkpt>
      <trkpt lat="43.61052" lon="1.41391">
        <ele>70.538</ele>
        <time>2018-04-17T09:41:25Z</time>
      </trkpt>
      <trkpt lat="43.61035" lon="1.41366">
        <ele>69.708</ele>
        <time>2018-04-17T09:41:30Z</time>
      </trkpt>
      <trkpt lat="43.6102" lon="1.41332">
        <ele>70.327</ele>
        <time>2018-04-17T09:41:35Z</time>
      </trkpt>
      <trkpt lat="43.61008" lon="1.41302">
        <ele>69.87</ele>
        <time>2018-04-17T09:41:40Z</time>
      </trkpt>
      <trkpt lat="43.6099" lon="1.41269">
        <ele>68.525</ele>
        <time>2018-04-17T09:41:45Z</time>
      </trkpt>
      <trkpt lat="43.60983" lon="1.41237">
        <ele>68.49</ele>
        <time>2018-04-17T09:41:50Z</time>
      </trkpt>
      <trkpt lat="43.60997" lon="1.41197">
        <ele>72.338</ele>
        <time>2018-04-17T09:41:59Z</time>
      </trkpt>
      <trkpt lat="43.61009" lon="1.41175">
        <ele>72.99</ele>
        <time>2018-04-17T09:42:04Z</time>
      </trkpt>
      <trkpt lat="43.61024" lon="1.4115">
        <ele>73.476</ele>
        <time>2018-04-17T09:42:09Z</time>
      </trkpt>
      <trkpt lat="43.6104" lon="1.41126">
        <ele>73.003</ele>
        <time>2018-04-17T09:42:14Z</time>
      </trkpt>
      <trkpt lat="43.61055" lon="1.411">
        <ele>73.466</ele>
        <time>2018-04-17T09:42:19Z</time>
      </trkpt>
      <trkpt lat="43.61068" lon="1.41073">
        <ele>73.632</ele>
        <time>2018-04-17T09:42:24Z</time>
      </trkpt>
      <trkpt lat="43.61088" lon="1.41049">
        <ele>73.793</ele>
        <time>2018-04-17T09:42:28Z</time>
      </trkpt>
      <trkpt lat="43.61107" lon="1.41025">
        <ele>72.898</ele>
        <time>2018-04-17T09:42:34Z</time>
      </trkpt>
      <trkpt lat="43.61127" lon="1.40999">
        <ele>73.236</ele>
        <time>2018-04-17T09:42:38Z</time>
      </trkpt>
      <trkpt lat="43.61161" lon="1.40964">
        <ele>73.706</ele>
        <time>2018-04-17T09:42:47Z</time>
      </trkpt>
      <trkpt lat="43.61183" lon="1.4094">
        <ele>73.727</ele>
        <time>2018-04-17T09:42:52Z</time>
      </trkpt>
      <trkpt lat="43.61204" lon="1.40918">
        <ele>73.614</ele>
        <time>2018-04-17T09:42:57Z</time>
      </trkpt>
      <trkpt lat="43.61225" lon="1.40895">
        <ele>73.461</ele>
        <time>2018-04-17T09:43:02Z</time>
      </trkpt>
      <trkpt lat="43.61247" lon="1.40873">
        <ele>73.733</ele>
        <time>2018-04-17T09:43:07Z</time>
      </trkpt>
      <trkpt lat="43.61264" lon="1.40851">
        <ele>73.704</ele>
        <time>2018-04-17T09:43:12Z</time>
      </trkpt>
      <trkpt lat="43.61284" lon="1.40828">
        <ele>73.069</ele>
        <time>2018-04-17T09:43:17Z</time>
      </trkpt>
      <trkpt lat="43.61303" lon="1.40808">
        <ele>73.302</ele>
        <time>2018-04-17T09:43:22Z</time>
      </trkpt>
      <trkpt lat="43.61323" lon="1.40785">
        <ele>73.347</ele>
        <time>2018-04-17T09:43:27Z</time>
      </trkpt>
      <trkpt lat="43.61344" lon="1.40763">
        <ele>72.721</ele>
        <time>2018-04-17T09:43:32Z</time>
      </trkpt>
      <trkpt lat="43.61363" lon="1.4074">
        <ele>73.209</ele>
        <time>2018-04-17T09:43:37Z</time>
      </trkpt>
      <trkpt lat="43.61382" lon="1.40719">
        <ele>73.001</ele>
        <time>2018-04-17T09:43:42Z</time>
      </trkpt>
      <trkpt lat="43.61402" lon="1.40698">
        <ele>73.175</ele>
        <time>2018-04-17T09:43:47Z</time>
      </trkpt>
      <trkpt lat="43.61423" lon="1.40674">
        <ele>73.117</ele>
        <time>2018-04-17T09:43:52Z</time>
      </trkpt>
      <trkpt lat="43.61443" lon="1.40651">
        <ele>73.698</ele>
        <time>2018-04-17T09:43:57Z</time>
      </trkpt>
      <trkpt lat="43.61465" lon="1.40626">
        <ele>72.723</ele>
        <time>2018-04-17T09:44:02Z</time>
      </trkpt>
      <trkpt lat="43.61486" lon="1.40603">
        <ele>73.202</ele>
        <time>2018-04-17T09:44:07Z</time>
      </trkpt>
      <trkpt lat="43.61507" lon="1.4058">
        <ele>73.685</ele>
        <time>2018-04-17T09:44:12Z</time>
      </trkpt>
      <trkpt lat="43.61528" lon="1.40557">
        <ele>72.892</ele>
        <time>2018-04-17T09:44:17Z</time>
      </trkpt>
      <trkpt lat="43.61549" lon="1.40537">
        <ele>72.969</ele>
        <time>2018-04-17T09:44:22Z</time>
      </trkpt>
      <trkpt lat="43.61577" lon="1.40517">
        <ele>72.7</ele>
        <time>2018-04-17T09:44:27Z</time>
      </trkpt>
      <trkpt lat="43.61602" lon="1.40498">
        <ele>72.647</ele>
        <time>2018-04-17T09:44:32Z</time>
      </trkpt>
      <trkpt lat="43.61626" lon="1.40479">
        <ele>72.726</ele>
        <time>2018-04-17T09:44:37Z</time>
      </trkpt>
      <trkpt lat="43.61652" lon="1.40461">
        <ele>72.438</ele>
        <time>2018-04-17T09:44:42Z</time>
      </trkpt>
      <trkpt lat="43.61675" lon="1.40447">
        <ele>72.131</ele>
        <time>2018-04-17T09:44:47Z</time>
      </trkpt>
      <trkpt lat="43.61699" lon="1.40433">
        <ele>72.071</ele>
        <time>2018-04-17T09:44:52Z</time>
      </trkpt>
      <trkpt lat="43.61723" lon="1.4042">
        <ele>72.073</ele>
        <time>2018-04-17T09:44:57Z</time>
      </trkpt>
      <trkpt lat="43.61747" lon="1.40404">
        <ele>72.274</ele>
        <time>2018-04-17T09:45:02Z</time>
      </trkpt>
      <trkpt lat="43.61772" lon="1.40396">
        <ele>72.221</ele>
        <time>2018-04-17T09:45:07Z</time>
      </trkpt>
      <trkpt lat="43.61797" lon="1.40385">
        <ele>71.894</ele>
        <time>2018-04-17T09:45:12Z</time>
      </trkpt>
      <trkpt lat="43.61822" lon="1.40375">
        <ele>71.788</ele>
        <time>2018-04-17T09:45:17Z</time>
      </trkpt>
      <trkpt lat="43.61847" lon="1.40365">
        <ele>71.68</ele>
        <time>2018-04-17T09:45:22Z</time>
      </trkpt>
      <trkpt lat="43.61871" lon="1.40357">
        <ele>71.542</ele>
        <time>2018-04-17T09:45:27Z</time>
      </trkpt>
      <trkpt lat="43.61902" lon="1.40343">
        <ele>71.791</ele>
        <time>2018-04-17T09:45:34Z</time>
      </trkpt>
      <trkpt lat="43.61933" lon="1.40333">
        <ele>71.595</ele>
        <time>2018-04-17T09:45:39Z</time>
      </trkpt>
      <trkpt lat="43.61962" lon="1.40324">
        <ele>71.392</ele>
        <time>2018-04-17T09:45:44Z</time>
      </trkpt>
      <trkpt lat="43.61989" lon="1.40315">
        <ele>71.307</ele>
        <time>2018-04-17T09:45:49Z</time>
      </trkpt>
      <trkpt lat="43.62013" lon="1.40306">
        <ele>69.928</ele>
        <time>2018-04-17T09:45:54Z</time>
      </trkpt>
      <trkpt lat="43.62038" lon="1.40296">
        <ele>71.199</ele>
        <time>2018-04-17T09:45:59Z</time>
      </trkpt>
      <trkpt lat="43.62063" lon="1.40286">
        <ele>71.23</ele>
        <time>2018-04-17T09:46:04Z</time>
      </trkpt>
      <trkpt lat="43.62087" lon="1.40278">
        <ele>71.101</ele>
        <time>2018-04-17T09:46:09Z</time>
      </trkpt>
      <trkpt lat="43.62111" lon="1.40268">
        <ele>70.565</ele>
        <time>2018-04-17T09:46:14Z</time>
      </trkpt>
      <trkpt lat="43.62135" lon="1.4026">
        <ele>70.89</ele>
        <time>2018-04-17T09:46:19Z</time>
      </trkpt>
      <trkpt lat="43.62161" lon="1.40252">
        <ele>70.937</ele>
        <time>2018-04-17T09:46:24Z</time>
      </trkpt>
      <trkpt lat="43.62185" lon="1.40245">
        <ele>71.204</ele>
        <time>2018-04-17T09:46:29Z</time>
      </trkpt>
      <trkpt lat="43.62218" lon="1.40232">
        <ele>71.209</ele>
        <time>2018-04-17T09:46:36Z</time>
      </trkpt>
      <trkpt lat="43.62243" lon="1.40229">
        <ele>70.528</ele>
        <time>2018-04-17T09:46:41Z</time>
      </trkpt>
      <trkpt lat="43.62269" lon="1.40224">
        <ele>70.702</ele>
        <time>2018-04-17T09:46:46Z</time>
      </trkpt>
      <trkpt lat="43.62296" lon="1.40221">
        <ele>71.17</ele>
        <time>2018-04-17T09:46:51Z</time>
      </trkpt>
      <trkpt lat="43.62323" lon="1.40218">
        <ele>70.078</ele>
        <time>2018-04-17T09:46:56Z</time>
      </trkpt>
      <trkpt lat="43.62351" lon="1.40219">
        <ele>69.812</ele>
        <time>2018-04-17T09:47:01Z</time>
      </trkpt>
      <trkpt lat="43.62376" lon="1.4022">
        <ele>70.224</ele>
        <time>2018-04-17T09:47:06Z</time>
      </trkpt>
      <trkpt lat="43.62406" lon="1.40223">
        <ele>69.55</ele>
        <time>2018-04-17T09:47:11Z</time>
      </trkpt>
      <trkpt lat="43.62432" lon="1.40224">
        <ele>69.682</ele>
        <time>2018-04-17T09:47:16Z</time>
      </trkpt>
      <trkpt lat="43.62452" lon="1.40248">
        <ele>69.286</ele>
        <time>2018-04-17T09:47:21Z</time>
      </trkpt>
      <trkpt lat="43.62458" lon="1.40274">
        <ele>67.78</ele>
        <time>2018-04-17T09:47:26Z</time>
      </trkpt>
      <trkpt lat="43.62474" lon="1.40266">
        <ele>69.206</ele>
        <time>2018-04-17T09:47:41Z</time>
      </trkpt>
      <trkpt lat="43.62486" lon="1.40242">
        <ele>68.29</ele>
        <time>2018-04-17T09:47:46Z</time>
      </trkpt>
      <trkpt lat="43.62515" lon="1.4024">
        <ele>68.078</ele>
        <time>2018-04-17T09:47:51Z</time>
      </trkpt>
      <trkpt lat="43.62542" lon="1.40221">
        <ele>64.091</ele>
        <time>2018-04-17T09:47:56Z</time>
      </trkpt>
      <trkpt lat="43.6255" lon="1.40215">
        <ele>64.516</ele>
        <time>2018-04-17T09:48:00Z</time>
      </trkpt>
      <trkpt lat="43.6257" lon="1.40222">
        <ele>65.235</ele>
        <time>2018-04-17T09:48:05Z</time>
      </trkpt>
      <trkpt lat="43.62602" lon="1.40229">
        <ele>64.868</ele>
        <time>2018-04-17T09:48:10Z</time>
      </trkpt>
      <trkpt lat="43.6264" lon="1.40237">
        <ele>64.609</ele>
        <time>2018-04-17T09:48:16Z</time>
      </trkpt>
      <trkpt lat="43.62675" lon="1.40242">
        <ele>64.413</ele>
        <time>2018-04-17T09:48:21Z</time>
      </trkpt>
      <trkpt lat="43.62701" lon="1.40245">
        <ele>64.429</ele>
        <time>2018-04-17T09:48:26Z</time>
      </trkpt>
      <trkpt lat="43.62729" lon="1.4025">
        <ele>64.733</ele>
        <time>2018-04-17T09:48:31Z</time>
      </trkpt>
      <trkpt lat="43.62757" lon="1.40259">
        <ele>64.152</ele>
        <time>2018-04-17T09:48:36Z</time>
      </trkpt>
      <trkpt lat="43.62784" lon="1.40267">
        <ele>64.622</ele>
        <time>2018-04-17T09:48:41Z</time>
      </trkpt>
      <trkpt lat="43.62812" lon="1.40272">
        <ele>64.133</ele>
        <time>2018-04-17T09:48:46Z</time>
      </trkpt>
      <trkpt lat="43.62838" lon="1.40279">
        <ele>64.725</ele>
        <time>2018-04-17T09:48:51Z</time>
      </trkpt>
      <trkpt lat="43.62864" lon="1.40286">
        <ele>64.641</ele>
        <time>2018-04-17T09:48:56Z</time>
      </trkpt>
      <trkpt lat="43.62891" lon="1.40295">
        <ele>64.437</ele>
        <time>2018-04-17T09:49:01Z</time>
      </trkpt>
      <trkpt lat="43.62916" lon="1.40303">
        <ele>64.545</ele>
        <time>2018-04-17T09:49:06Z</time>
      </trkpt>
      <trkpt lat="43.62943" lon="1.4031">
        <ele>64.273</ele>
        <time>2018-04-17T09:49:11Z</time>
      </trkpt>
      <trkpt lat="43.62969" lon="1.40326">
        <ele>63.43</ele>
        <time>2018-04-17T09:49:16Z</time>
      </trkpt>
      <trkpt lat="43.62987" lon="1.40334">
        <ele>63.24</ele>
        <time>2018-04-17T09:49:21Z</time>
      </trkpt>
      <trkpt lat="43.63015" lon="1.40345">
        <ele>64.231</ele>
        <time>2018-04-17T09:49:26Z</time>
      </trkpt>
      <trkpt lat="43.63045" lon="1.40357">
        <ele>63.851</ele>
        <time>2018-04-17T09:49:31Z</time>
      </trkpt>
      <trkpt lat="43.63073" lon="1.40369">
        <ele>64.157</ele>
        <time>2018-04-17T09:49:36Z</time>
      </trkpt>
      <trkpt lat="43.631" lon="1.40383">
        <ele>64.244</ele>
        <time>2018-04-17T09:49:41Z</time>
      </trkpt>
      <trkpt lat="43.63127" lon="1.40395">
        <ele>63.89</ele>
        <time>2018-04-17T09:49:46Z</time>
      </trkpt>
      <trkpt lat="43.63152" lon="1.40406">
        <ele>64.287</ele>
        <time>2018-04-17T09:49:51Z</time>
      </trkpt>
      <trkpt lat="43.63176" lon="1.40414">
        <ele>64.12</ele>
        <time>2018-04-17T09:49:56Z</time>
      </trkpt>
      <trkpt lat="43.63202" lon="1.40425">
        <ele>64.464</ele>
        <time>2018-04-17T09:50:01Z</time>
      </trkpt>
      <trkpt lat="43.63226" lon="1.40434">
        <ele>64.427</ele>
        <time>2018-04-17T09:50:06Z</time>
      </trkpt>
      <trkpt lat="43.6325" lon="1.40445">
        <ele>64.395</ele>
        <time>2018-04-17T09:50:11Z</time>
      </trkpt>
      <trkpt lat="43.63274" lon="1.4045">
        <ele>64.316</ele>
        <time>2018-04-17T09:50:16Z</time>
      </trkpt>
      <trkpt lat="43.63295" lon="1.40459">
        <ele>63.666</ele>
        <time>2018-04-17T09:50:21Z</time>
      </trkpt>
      <trkpt lat="43.63318" lon="1.40472">
        <ele>63.829</ele>
        <time>2018-04-17T09:50:26Z</time>
      </trkpt>
      <trkpt lat="43.63343" lon="1.40479">
        <ele>63.462</ele>
        <time>2018-04-17T09:50:31Z</time>
      </trkpt>
      <trkpt lat="43.63367" lon="1.40485">
        <ele>62.857</ele>
        <time>2018-04-17T09:50:36Z</time>
      </trkpt>
      <trkpt lat="43.63388" lon="1.40499">
        <ele>62.973</ele>
        <time>2018-04-17T09:50:41Z</time>
      </trkpt>
      <trkpt lat="43.63412" lon="1.405">
        <ele>63.489</ele>
        <time>2018-04-17T09:50:46Z</time>
      </trkpt>
      <trkpt lat="43.63434" lon="1.40497">
        <ele>63.898</ele>
        <time>2018-04-17T09:50:51Z</time>
      </trkpt>
      <trkpt lat="43.63457" lon="1.40493">
        <ele>63.837</ele>
        <time>2018-04-17T09:50:56Z</time>
      </trkpt>
      <trkpt lat="43.63481" lon="1.4049">
        <ele>63.496</ele>
        <time>2018-04-17T09:51:01Z</time>
      </trkpt>
      <trkpt lat="43.63506" lon="1.40489">
        <ele>63.526</ele>
        <time>2018-04-17T09:51:06Z</time>
      </trkpt>
      <trkpt lat="43.63529" lon="1.40487">
        <ele>63.174</ele>
        <time>2018-04-17T09:51:11Z</time>
      </trkpt>
      <trkpt lat="43.63556" lon="1.40488">
        <ele>63.047</ele>
        <time>2018-04-17T09:51:16Z</time>
      </trkpt>
      <trkpt lat="43.63582" lon="1.4049">
        <ele>63.145</ele>
        <time>2018-04-17T09:51:21Z</time>
      </trkpt>
      <trkpt lat="43.63615" lon="1.40493">
        <ele>63.79</ele>
        <time>2018-04-17T09:51:29Z</time>
      </trkpt>
      <trkpt lat="43.63643" lon="1.40491">
        <ele>62.506</ele>
        <time>2018-04-17T09:51:34Z</time>
      </trkpt>
      <trkpt lat="43.63671" lon="1.40492">
        <ele>63.164</ele>
        <time>2018-04-17T09:51:39Z</time>
      </trkpt>
      <trkpt lat="43.63697" lon="1.40488">
        <ele>62.926</ele>
        <time>2018-04-17T09:51:44Z</time>
      </trkpt>
      <trkpt lat="43.63721" lon="1.40486">
        <ele>62.939</ele>
        <time>2018-04-17T09:51:49Z</time>
      </trkpt>
      <trkpt lat="43.63748" lon="1.4048">
        <ele>62.593</ele>
        <time>2018-04-17T09:51:54Z</time>
      </trkpt>
      <trkpt lat="43.63773" lon="1.40474">
        <ele>62.157</ele>
        <time>2018-04-17T09:51:59Z</time>
      </trkpt>
      <trkpt lat="43.63802" lon="1.40477">
        <ele>62.226</ele>
        <time>2018-04-17T09:52:04Z</time>
      </trkpt>
      <trkpt lat="43.63823" lon="1.40476">
        <ele>62.556</ele>
        <time>2018-04-17T09:52:09Z</time>
      </trkpt>
      <trkpt lat="43.63841" lon="1.40471">
        <ele>62.928</ele>
        <time>2018-04-17T09:52:14Z</time>
      </trkpt>
      <trkpt lat="43.63865" lon="1.40464">
        <ele>63.261</ele>
        <time>2018-04-17T09:52:19Z</time>
      </trkpt>
      <trkpt lat="43.63889" lon="1.40456">
        <ele>63.282</ele>
        <time>2018-04-17T09:52:24Z</time>
      </trkpt>
      <trkpt lat="43.63912" lon="1.40453">
        <ele>62.973</ele>
        <time>2018-04-17T09:52:29Z</time>
      </trkpt>
      <trkpt lat="43.63939" lon="1.40449">
        <ele>63.153</ele>
        <time>2018-04-17T09:52:34Z</time>
      </trkpt>
      <trkpt lat="43.63963" lon="1.40446">
        <ele>62.889</ele>
        <time>2018-04-17T09:52:39Z</time>
      </trkpt>
      <trkpt lat="43.63983" lon="1.40443">
        <ele>61.488</ele>
        <time>2018-04-17T09:52:44Z</time>
      </trkpt>
      <trkpt lat="43.63998" lon="1.40442">
        <ele>62.064</ele>
        <time>2018-04-17T09:52:49Z</time>
      </trkpt>
      <trkpt lat="43.64017" lon="1.40436">
        <ele>62.754</ele>
        <time>2018-04-17T09:52:54Z</time>
      </trkpt>
      <trkpt lat="43.64039" lon="1.40432">
        <ele>63.248</ele>
        <time>2018-04-17T09:52:59Z</time>
      </trkpt>
      <trkpt lat="43.64064" lon="1.40421">
        <ele>63.185</ele>
        <time>2018-04-17T09:53:04Z</time>
      </trkpt>
      <trkpt lat="43.64089" lon="1.40415">
        <ele>63.084</ele>
        <time>2018-04-17T09:53:09Z</time>
      </trkpt>
      <trkpt lat="43.64113" lon="1.40408">
        <ele>63.113</ele>
        <time>2018-04-17T09:53:14Z</time>
      </trkpt>
      <trkpt lat="43.64134" lon="1.40403">
        <ele>63.396</ele>
        <time>2018-04-17T09:53:19Z</time>
      </trkpt>
      <trkpt lat="43.64156" lon="1.40398">
        <ele>63.391</ele>
        <time>2018-04-17T09:53:24Z</time>
      </trkpt>
      <trkpt lat="43.64177" lon="1.40392">
        <ele>63.629</ele>
        <time>2018-04-17T09:53:29Z</time>
      </trkpt>
      <trkpt lat="43.64198" lon="1.40385">
        <ele>63.7</ele>
        <time>2018-04-17T09:53:34Z</time>
      </trkpt>
      <trkpt lat="43.64218" lon="1.40378">
        <ele>63.853</ele>
        <time>2018-04-17T09:53:39Z</time>
      </trkpt>
      <trkpt lat="43.6424" lon="1.40372">
        <ele>63.975</ele>
        <time>2018-04-17T09:53:44Z</time>
      </trkpt>
      <trkpt lat="43.64263" lon="1.40365">
        <ele>63.589</ele>
        <time>2018-04-17T09:53:49Z</time>
      </trkpt>
      <trkpt lat="43.64285" lon="1.40359">
        <ele>63.063</ele>
        <time>2018-04-17T09:53:53Z</time>
      </trkpt>
      <trkpt lat="43.64307" lon="1.40352">
        <ele>62.883</ele>
        <time>2018-04-17T09:53:58Z</time>
      </trkpt>
      <trkpt lat="43.64327" lon="1.40347">
        <ele>63.071</ele>
        <time>2018-04-17T09:54:03Z</time>
      </trkpt>
      <trkpt lat="43.64349" lon="1.4034">
        <ele>63.145</ele>
        <time>2018-04-17T09:54:08Z</time>
      </trkpt>
      <trkpt lat="43.6437" lon="1.40338">
        <ele>62.659</ele>
        <time>2018-04-17T09:54:13Z</time>
      </trkpt>
      <trkpt lat="43.6439" lon="1.40337">
        <ele>63.457</ele>
        <time>2018-04-17T09:54:18Z</time>
      </trkpt>
      <trkpt lat="43.64408" lon="1.40328">
        <ele>63.533</ele>
        <time>2018-04-17T09:54:23Z</time>
      </trkpt>
      <trkpt lat="43.64427" lon="1.40322">
        <ele>63.51</ele>
        <time>2018-04-17T09:54:28Z</time>
      </trkpt>
      <trkpt lat="43.64453" lon="1.4032">
        <ele>63.639</ele>
        <time>2018-04-17T09:54:33Z</time>
      </trkpt>
      <trkpt lat="43.64486" lon="1.40313">
        <ele>64.316</ele>
        <time>2018-04-17T09:54:40Z</time>
      </trkpt>
      <trkpt lat="43.6451" lon="1.40306">
        <ele>64.382</ele>
        <time>2018-04-17T09:54:45Z</time>
      </trkpt>
      <trkpt lat="43.64533" lon="1.40298">
        <ele>64.149</ele>
        <time>2018-04-17T09:54:50Z</time>
      </trkpt>
      <trkpt lat="43.64552" lon="1.4029">
        <ele>64.308</ele>
        <time>2018-04-17T09:54:55Z</time>
      </trkpt>
      <trkpt lat="43.6457" lon="1.40284">
        <ele>64.757</ele>
        <time>2018-04-17T09:55:00Z</time>
      </trkpt>
      <trkpt lat="43.64591" lon="1.40277">
        <ele>64.952</ele>
        <time>2018-04-17T09:55:05Z</time>
      </trkpt>
      <trkpt lat="43.64616" lon="1.40263">
        <ele>64.582</ele>
        <time>2018-04-17T09:55:10Z</time>
      </trkpt>
      <trkpt lat="43.64641" lon="1.40257">
        <ele>64.511</ele>
        <time>2018-04-17T09:55:15Z</time>
      </trkpt>
      <trkpt lat="43.64666" lon="1.40251">
        <ele>64.532</ele>
        <time>2018-04-17T09:55:20Z</time>
      </trkpt>
      <trkpt lat="43.64692" lon="1.40245">
        <ele>64.514</ele>
        <time>2018-04-17T09:55:25Z</time>
      </trkpt>
      <trkpt lat="43.64716" lon="1.40237">
        <ele>63.962</ele>
        <time>2018-04-17T09:55:30Z</time>
      </trkpt>
      <trkpt lat="43.6474" lon="1.40234">
        <ele>63.787</ele>
        <time>2018-04-17T09:55:35Z</time>
      </trkpt>
      <trkpt lat="43.64765" lon="1.40233">
        <ele>64.001</ele>
        <time>2018-04-17T09:55:40Z</time>
      </trkpt>
      <trkpt lat="43.64789" lon="1.40234">
        <ele>63.956</ele>
        <time>2018-04-17T09:55:45Z</time>
      </trkpt>
      <trkpt lat="43.64815" lon="1.40232">
        <ele>63.578</ele>
        <time>2018-04-17T09:55:50Z</time>
      </trkpt>
      <trkpt lat="43.64838" lon="1.40228">
        <ele>62.49</ele>
        <time>2018-04-17T09:55:55Z</time>
      </trkpt>
      <trkpt lat="43.64858" lon="1.40228">
        <ele>63.496</ele>
        <time>2018-04-17T09:56:00Z</time>
      </trkpt>
      <trkpt lat="43.6488" lon="1.40235">
        <ele>63.597</ele>
        <time>2018-04-17T09:56:05Z</time>
      </trkpt>
      <trkpt lat="43.64902" lon="1.40254">
        <ele>63.438</ele>
        <time>2018-04-17T09:56:10Z</time>
      </trkpt>
      <trkpt lat="43.64923" lon="1.40273">
        <ele>63.01</ele>
        <time>2018-04-17T09:56:15Z</time>
      </trkpt>
      <trkpt lat="43.64945" lon="1.4029">
        <ele>63.293</ele>
        <time>2018-04-17T09:56:20Z</time>
      </trkpt>
      <trkpt lat="43.64969" lon="1.40312">
        <ele>63.515</ele>
        <time>2018-04-17T09:56:25Z</time>
      </trkpt>
      <trkpt lat="43.64988" lon="1.40333">
        <ele>63.375</ele>
        <time>2018-04-17T09:56:30Z</time>
      </trkpt>
      <trkpt lat="43.65008" lon="1.40354">
        <ele>63.66</ele>
        <time>2018-04-17T09:56:35Z</time>
      </trkpt>
      <trkpt lat="43.65031" lon="1.4038">
        <ele>63.288</ele>
        <time>2018-04-17T09:56:40Z</time>
      </trkpt>
      <trkpt lat="43.65051" lon="1.40401">
        <ele>63.372</ele>
        <time>2018-04-17T09:56:45Z</time>
      </trkpt>
      <trkpt lat="43.65078" lon="1.40424">
        <ele>62.424</ele>
        <time>2018-04-17T09:56:50Z</time>
      </trkpt>
      <trkpt lat="43.65102" lon="1.40447">
        <ele>61.774</ele>
        <time>2018-04-17T09:56:55Z</time>
      </trkpt>
      <trkpt lat="43.65125" lon="1.40469">
        <ele>61.285</ele>
        <time>2018-04-17T09:57:00Z</time>
      </trkpt>
      <trkpt lat="43.65144" lon="1.4049">
        <ele>61.282</ele>
        <time>2018-04-17T09:57:05Z</time>
      </trkpt>
      <trkpt lat="43.65163" lon="1.4051">
        <ele>61.697</ele>
        <time>2018-04-17T09:57:10Z</time>
      </trkpt>
      <trkpt lat="43.65188" lon="1.40527">
        <ele>60.664</ele>
        <time>2018-04-17T09:57:15Z</time>
      </trkpt>
      <trkpt lat="43.65207" lon="1.40549">
        <ele>60.957</ele>
        <time>2018-04-17T09:57:20Z</time>
      </trkpt>
      <trkpt lat="43.65227" lon="1.40567">
        <ele>60.209</ele>
        <time>2018-04-17T09:57:25Z</time>
      </trkpt>
      <trkpt lat="43.65247" lon="1.40584">
        <ele>60.542</ele>
        <time>2018-04-17T09:57:30Z</time>
      </trkpt>
      <trkpt lat="43.65268" lon="1.40604">
        <ele>60.331</ele>
        <time>2018-04-17T09:57:35Z</time>
      </trkpt>
      <trkpt lat="43.65304" lon="1.40632">
        <ele>60.336</ele>
        <time>2018-04-17T09:57:44Z</time>
      </trkpt>
      <trkpt lat="43.65327" lon="1.40646">
        <ele>60.569</ele>
        <time>2018-04-17T09:57:49Z</time>
      </trkpt>
      <trkpt lat="43.6535" lon="1.40662">
        <ele>59.977</ele>
        <time>2018-04-17T09:57:54Z</time>
      </trkpt>
      <trkpt lat="43.65373" lon="1.40676">
        <ele>59.935</ele>
        <time>2018-04-17T09:57:59Z</time>
      </trkpt>
      <trkpt lat="43.65392" lon="1.40689">
        <ele>60.73</ele>
        <time>2018-04-17T09:58:04Z</time>
      </trkpt>
      <trkpt lat="43.65411" lon="1.40702">
        <ele>61.243</ele>
        <time>2018-04-17T09:58:09Z</time>
      </trkpt>
      <trkpt lat="43.65431" lon="1.40714">
        <ele>61.554</ele>
        <time>2018-04-17T09:58:14Z</time>
      </trkpt>
      <trkpt lat="43.65449" lon="1.40727">
        <ele>60.96</ele>
        <time>2018-04-17T09:58:19Z</time>
      </trkpt>
      <trkpt lat="43.65466" lon="1.40738">
        <ele>60.96</ele>
        <time>2018-04-17T09:58:24Z</time>
      </trkpt>
      <trkpt lat="43.65488" lon="1.40751">
        <ele>61.544</ele>
        <time>2018-04-17T09:58:29Z</time>
      </trkpt>
      <trkpt lat="43.65487" lon="1.40772">
        <ele>61.118</ele>
        <time>2018-04-17T09:58:34Z</time>
      </trkpt>
      <trkpt lat="43.65465" lon="1.40792">
        <ele>61.079</ele>
        <time>2018-04-17T09:58:39Z</time>
      </trkpt>
      <trkpt lat="43.65441" lon="1.40806">
        <ele>61.155</ele>
        <time>2018-04-17T09:58:44Z</time>
      </trkpt>
      <trkpt lat="43.65417" lon="1.40813">
        <ele>61.134</ele>
        <time>2018-04-17T09:58:49Z</time>
      </trkpt>
      <trkpt lat="43.65394" lon="1.40822">
        <ele>61.169</ele>
        <time>2018-04-17T09:58:54Z</time>
      </trkpt>
      <trkpt lat="43.6537" lon="1.40832">
        <ele>60.606</ele>
        <time>2018-04-17T09:58:59Z</time>
      </trkpt>
      <trkpt lat="43.65347" lon="1.40839">
        <ele>60.749</ele>
        <time>2018-04-17T09:59:04Z</time>
      </trkpt>
      <trkpt lat="43.65323" lon="1.40845">
        <ele>60.606</ele>
        <time>2018-04-17T09:59:09Z</time>
      </trkpt>
      <trkpt lat="43.65299" lon="1.40852">
        <ele>59.652</ele>
        <time>2018-04-17T09:59:14Z</time>
      </trkpt>
      <trkpt lat="43.65295" lon="1.40868">
        <ele>59.684</ele>
        <time>2018-04-17T09:59:19Z</time>
      </trkpt>
      <trkpt lat="43.65299" lon="1.40893">
        <ele>60.804</ele>
        <time>2018-04-17T09:59:24Z</time>
      </trkpt>
      <trkpt lat="43.65303" lon="1.40915">
        <ele>61.496</ele>
        <time>2018-04-17T09:59:29Z</time>
      </trkpt>
      <trkpt lat="43.65308" lon="1.4094">
        <ele>62.825</ele>
        <time>2018-04-17T09:59:34Z</time>
      </trkpt>
      <trkpt lat="43.65316" lon="1.40965">
        <ele>63.552</ele>
        <time>2018-04-17T09:59:39Z</time>
      </trkpt>
      <trkpt lat="43.65327" lon="1.40988">
        <ele>63.489</ele>
        <time>2018-04-17T09:59:44Z</time>
      </trkpt>
      <trkpt lat="43.65335" lon="1.41013">
        <ele>63.975</ele>
        <time>2018-04-17T09:59:49Z</time>
      </trkpt>
      <trkpt lat="43.65339" lon="1.41041">
        <ele>64.22</ele>
        <time>2018-04-17T09:59:54Z</time>
      </trkpt>
      <trkpt lat="43.65341" lon="1.4107">
        <ele>64.421</ele>
        <time>2018-04-17T09:59:59Z</time>
      </trkpt>
      <trkpt lat="43.65342" lon="1.41106">
        <ele>64.675</ele>
        <time>2018-04-17T10:00:04Z</time>
      </trkpt>
      <trkpt lat="43.65339" lon="1.4114">
        <ele>64.535</ele>
        <time>2018-04-17T10:00:10Z</time>
      </trkpt>
      <trkpt lat="43.65337" lon="1.41172">
        <ele>64.205</ele>
        <time>2018-04-17T10:00:15Z</time>
      </trkpt>
      <trkpt lat="43.65334" lon="1.41195">
        <ele>63.536</ele>
        <time>2018-04-17T10:00:20Z</time>
      </trkpt>
      <trkpt lat="43.65318" lon="1.41204">
        <ele>63.1</ele>
        <time>2018-04-17T10:00:25Z</time>
      </trkpt>
      <trkpt lat="43.65316" lon="1.41216">
        <ele>62.72</ele>
        <time>2018-04-17T10:00:30Z</time>
      </trkpt>
      <trkpt lat="43.65331" lon="1.41241">
        <ele>63.964</ele>
        <time>2018-04-17T10:00:44Z</time>
      </trkpt>
      <trkpt lat="43.65342" lon="1.41272">
        <ele>63.436</ele>
        <time>2018-04-17T10:00:49Z</time>
      </trkpt>
      <trkpt lat="43.65348" lon="1.413">
        <ele>63.544</ele>
        <time>2018-04-17T10:00:54Z</time>
      </trkpt>
      <trkpt lat="43.65355" lon="1.41323">
        <ele>63.378</ele>
        <time>2018-04-17T10:00:59Z</time>
      </trkpt>
      <trkpt lat="43.65364" lon="1.41356">
        <ele>64.181</ele>
        <time>2018-04-17T10:01:03Z</time>
      </trkpt>
      <trkpt lat="43.65371" lon="1.41384">
        <ele>64.012</ele>
        <time>2018-04-17T10:01:08Z</time>
      </trkpt>
      <trkpt lat="43.65366" lon="1.41411">
        <ele>63.954</ele>
        <time>2018-04-17T10:01:14Z</time>
      </trkpt>
      <trkpt lat="43.65373" lon="1.41441">
        <ele>64.268</ele>
        <time>2018-04-17T10:01:19Z</time>
      </trkpt>
      <trkpt lat="43.65377" lon="1.4147">
        <ele>63.909</ele>
        <time>2018-04-17T10:01:24Z</time>
      </trkpt>
      <trkpt lat="43.65372" lon="1.415">
        <ele>63.956</ele>
        <time>2018-04-17T10:01:29Z</time>
      </trkpt>
      <trkpt lat="43.65367" lon="1.41529">
        <ele>63.798</ele>
        <time>2018-04-17T10:01:34Z</time>
      </trkpt>
      <trkpt lat="43.65361" lon="1.41551">
        <ele>64.067</ele>
        <time>2018-04-17T10:01:39Z</time>
      </trkpt>
      <trkpt lat="43.65339" lon="1.41565">
        <ele>64.149</ele>
        <time>2018-04-17T10:01:44Z</time>
      </trkpt>
      <trkpt lat="43.65319" lon="1.41584">
        <ele>64.141</ele>
        <time>2018-04-17T10:01:49Z</time>
      </trkpt>
      <trkpt lat="43.653" lon="1.41601">
        <ele>64.213</ele>
        <time>2018-04-17T10:01:54Z</time>
      </trkpt>
      <trkpt lat="43.65279" lon="1.41619">
        <ele>64.479</ele>
        <time>2018-04-17T10:01:59Z</time>
      </trkpt>
      <trkpt lat="43.65262" lon="1.41639">
        <ele>63.79</ele>
        <time>2018-04-17T10:02:04Z</time>
      </trkpt>
      <trkpt lat="43.65241" lon="1.41658">
        <ele>63.893</ele>
        <time>2018-04-17T10:02:09Z</time>
      </trkpt>
      <trkpt lat="43.65221" lon="1.41675">
        <ele>63.985</ele>
        <time>2018-04-17T10:02:14Z</time>
      </trkpt>
      <trkpt lat="43.65202" lon="1.41692">
        <ele>64.181</ele>
        <time>2018-04-17T10:02:19Z</time>
      </trkpt>
      <trkpt lat="43.65184" lon="1.41709">
        <ele>64.53</ele>
        <time>2018-04-17T10:02:24Z</time>
      </trkpt>
      <trkpt lat="43.65167" lon="1.41725">
        <ele>64.931</ele>
        <time>2018-04-17T10:02:29Z</time>
      </trkpt>
      <trkpt lat="43.6515" lon="1.4174">
        <ele>64.347</ele>
        <time>2018-04-17T10:02:34Z</time>
      </trkpt>
      <trkpt lat="43.6513" lon="1.41757">
        <ele>64.366</ele>
        <time>2018-04-17T10:02:39Z</time>
      </trkpt>
      <trkpt lat="43.65117" lon="1.41785">
        <ele>64.141</ele>
        <time>2018-04-17T10:02:44Z</time>
      </trkpt>
      <trkpt lat="43.65105" lon="1.41807">
        <ele>64.429</ele>
        <time>2018-04-17T10:02:49Z</time>
      </trkpt>
      <trkpt lat="43.6509" lon="1.41815">
        <ele>64.421</ele>
        <time>2018-04-17T10:02:54Z</time>
      </trkpt>
      <trkpt lat="43.65072" lon="1.41803">
        <ele>64.561</ele>
        <time>2018-04-17T10:02:59Z</time>
      </trkpt>
      <trkpt lat="43.65059" lon="1.41781">
        <ele>64.464</ele>
        <time>2018-04-17T10:03:04Z</time>
      </trkpt>
      <trkpt lat="43.65033" lon="1.41763">
        <ele>63.993</ele>
        <time>2018-04-17T10:03:09Z</time>
      </trkpt>
      <trkpt lat="43.65011" lon="1.41766">
        <ele>64.21</ele>
        <time>2018-04-17T10:03:14Z</time>
      </trkpt>
      <trkpt lat="43.64992" lon="1.41776">
        <ele>63.774</ele>
        <time>2018-04-17T10:03:19Z</time>
      </trkpt>
      <trkpt lat="43.6497" lon="1.41782">
        <ele>63.909</ele>
        <time>2018-04-17T10:03:24Z</time>
      </trkpt>
      <trkpt lat="43.64948" lon="1.41766">
        <ele>64.057</ele>
        <time>2018-04-17T10:03:29Z</time>
      </trkpt>
      <trkpt lat="43.64923" lon="1.41762">
        <ele>64.9</ele>
        <time>2018-04-17T10:03:34Z</time>
      </trkpt>
      <trkpt lat="43.64898" lon="1.41757">
        <ele>66.089</ele>
        <time>2018-04-17T10:03:39Z</time>
      </trkpt>
      <trkpt lat="43.64873" lon="1.41769">
        <ele>64.863</ele>
        <time>2018-04-17T10:03:44Z</time>
      </trkpt>
      <trkpt lat="43.64845" lon="1.41786">
        <ele>65.6</ele>
        <time>2018-04-17T10:03:49Z</time>
      </trkpt>
      <trkpt lat="43.64828" lon="1.41814">
        <ele>65.225</ele>
        <time>2018-04-17T10:03:54Z</time>
      </trkpt>
      <trkpt lat="43.64821" lon="1.41842">
        <ele>65.008</ele>
        <time>2018-04-17T10:03:59Z</time>
      </trkpt>
      <trkpt lat="43.64816" lon="1.41873">
        <ele>65.148</ele>
        <time>2018-04-17T10:04:04Z</time>
      </trkpt>
      <trkpt lat="43.64817" lon="1.41901">
        <ele>65.515</ele>
        <time>2018-04-17T10:04:09Z</time>
      </trkpt>
      <trkpt lat="43.64824" lon="1.41926">
        <ele>65.679</ele>
        <time>2018-04-17T10:04:14Z</time>
      </trkpt>
      <trkpt lat="43.6483" lon="1.41953">
        <ele>65.201</ele>
        <time>2018-04-17T10:04:18Z</time>
      </trkpt>
      <trkpt lat="43.64834" lon="1.41979">
        <ele>64.91</ele>
        <time>2018-04-17T10:04:23Z</time>
      </trkpt>
      <trkpt lat="43.64845" lon="1.41996">
        <ele>63.927</ele>
        <time>2018-04-17T10:04:28Z</time>
      </trkpt>
      <trkpt lat="43.64856" lon="1.4202">
        <ele>64.062</ele>
        <time>2018-04-17T10:04:34Z</time>
      </trkpt>
      <trkpt lat="43.6488" lon="1.42027">
        <ele>64.667</ele>
        <time>2018-04-17T10:04:39Z</time>
      </trkpt>
      <trkpt lat="43.64904" lon="1.42027">
        <ele>64.752</ele>
        <time>2018-04-17T10:04:44Z</time>
      </trkpt>
      <trkpt lat="43.64928" lon="1.42027">
        <ele>64.429</ele>
        <time>2018-04-17T10:04:49Z</time>
      </trkpt>
      <trkpt lat="43.64951" lon="1.42035">
        <ele>64.942</ele>
        <time>2018-04-17T10:04:54Z</time>
      </trkpt>
      <trkpt lat="43.64975" lon="1.42043">
        <ele>64.807</ele>
        <time>2018-04-17T10:04:59Z</time>
      </trkpt>
      <trkpt lat="43.64997" lon="1.42044">
        <ele>66.12</ele>
        <time>2018-04-17T10:05:04Z</time>
      </trkpt>
      <trkpt lat="43.65026" lon="1.42035">
        <ele>66.429</ele>
        <time>2018-04-17T10:05:09Z</time>
      </trkpt>
      <trkpt lat="43.65051" lon="1.42022">
        <ele>65.954</ele>
        <time>2018-04-17T10:05:15Z</time>
      </trkpt>
      <trkpt lat="43.65073" lon="1.4201">
        <ele>66.485</ele>
        <time>2018-04-17T10:05:20Z</time>
      </trkpt>
      <trkpt lat="43.65097" lon="1.42002">
        <ele>66.099</ele>
        <time>2018-04-17T10:05:25Z</time>
      </trkpt>
      <trkpt lat="43.6512" lon="1.41995">
        <ele>66.443</ele>
        <time>2018-04-17T10:05:30Z</time>
      </trkpt>
      <trkpt lat="43.65144" lon="1.41994">
        <ele>65.938</ele>
        <time>2018-04-17T10:05:35Z</time>
      </trkpt>
      <trkpt lat="43.6517" lon="1.41995">
        <ele>66.374</ele>
        <time>2018-04-17T10:05:40Z</time>
      </trkpt>
      <trkpt lat="43.65196" lon="1.41992">
        <ele>66.215</ele>
        <time>2018-04-17T10:05:45Z</time>
      </trkpt>
      <trkpt lat="43.65219" lon="1.41995">
        <ele>65.631</ele>
        <time>2018-04-17T10:05:50Z</time>
      </trkpt>
      <trkpt lat="43.6524" lon="1.41999">
        <ele>65.349</ele>
        <time>2018-04-17T10:05:55Z</time>
      </trkpt>
      <trkpt lat="43.65264" lon="1.42">
        <ele>64.257</ele>
        <time>2018-04-17T10:06:00Z</time>
      </trkpt>
      <trkpt lat="43.65279" lon="1.42012">
        <ele>63.811</ele>
        <time>2018-04-17T10:06:05Z</time>
      </trkpt>
      <trkpt lat="43.65283" lon="1.42042">
        <ele>64.244</ele>
        <time>2018-04-17T10:06:10Z</time>
      </trkpt>
      <trkpt lat="43.65282" lon="1.42074">
        <ele>64.162</ele>
        <time>2018-04-17T10:06:15Z</time>
      </trkpt>
      <trkpt lat="43.6529" lon="1.42105">
        <ele>64.659</ele>
        <time>2018-04-17T10:06:20Z</time>
      </trkpt>
      <trkpt lat="43.65301" lon="1.42133">
        <ele>64.361</ele>
        <time>2018-04-17T10:06:25Z</time>
      </trkpt>
      <trkpt lat="43.65286" lon="1.42154">
        <ele>64.115</ele>
        <time>2018-04-17T10:06:30Z</time>
      </trkpt>
      <trkpt lat="43.65269" lon="1.42178">
        <ele>64.371</ele>
        <time>2018-04-17T10:06:35Z</time>
      </trkpt>
      <trkpt lat="43.65253" lon="1.42199">
        <ele>63.972</ele>
        <time>2018-04-17T10:06:40Z</time>
      </trkpt>
      <trkpt lat="43.65246" lon="1.42226">
        <ele>64.791</ele>
        <time>2018-04-17T10:06:45Z</time>
      </trkpt>
      <trkpt lat="43.65231" lon="1.42251">
        <ele>65.301</ele>
        <time>2018-04-17T10:06:50Z</time>
      </trkpt>
      <trkpt lat="43.65215" lon="1.42278">
        <ele>65.362</ele>
        <time>2018-04-17T10:06:55Z</time>
      </trkpt>
      <trkpt lat="43.65203" lon="1.42308">
        <ele>66.643</ele>
        <time>2018-04-17T10:07:00Z</time>
      </trkpt>
      <trkpt lat="43.65198" lon="1.42325">
        <ele>66.17</ele>
        <time>2018-04-17T10:07:06Z</time>
      </trkpt>
      <trkpt lat="43.65088" lon="1.42343">
        <ele>67.436</ele>
        <time>2018-04-17T10:07:28Z</time>
      </trkpt>
      <trkpt lat="43.65061" lon="1.42343">
        <ele>67.613</ele>
        <time>2018-04-17T10:07:33Z</time>
      </trkpt>
      <trkpt lat="43.65029" lon="1.4234">
        <ele>68.12</ele>
        <time>2018-04-17T10:07:39Z</time>
      </trkpt>
      <trkpt lat="43.65001" lon="1.42334">
        <ele>68.327</ele>
        <time>2018-04-17T10:07:44Z</time>
      </trkpt>
      <trkpt lat="43.64972" lon="1.42328">
        <ele>67.914</ele>
        <time>2018-04-17T10:07:49Z</time>
      </trkpt>
      <trkpt lat="43.64932" lon="1.42323">
        <ele>68.002</ele>
        <time>2018-04-17T10:08:01Z</time>
      </trkpt>
      <trkpt lat="43.64906" lon="1.42319">
        <ele>67.788</ele>
        <time>2018-04-17T10:08:06Z</time>
      </trkpt>
      <trkpt lat="43.64879" lon="1.42313">
        <ele>68.549</ele>
        <time>2018-04-17T10:08:11Z</time>
      </trkpt>
      <trkpt lat="43.64851" lon="1.4231">
        <ele>68.147</ele>
        <time>2018-04-17T10:08:16Z</time>
      </trkpt>
      <trkpt lat="43.6482" lon="1.42303">
        <ele>68.358</ele>
        <time>2018-04-17T10:08:21Z</time>
      </trkpt>
      <trkpt lat="43.64785" lon="1.42298">
        <ele>67.914</ele>
        <time>2018-04-17T10:08:26Z</time>
      </trkpt>
      <trkpt lat="43.64751" lon="1.42294">
        <ele>68.025</ele>
        <time>2018-04-17T10:08:31Z</time>
      </trkpt>
      <trkpt lat="43.64719" lon="1.42292">
        <ele>67.959</ele>
        <time>2018-04-17T10:08:36Z</time>
      </trkpt>
      <trkpt lat="43.64691" lon="1.42286">
        <ele>67.637</ele>
        <time>2018-04-17T10:08:41Z</time>
      </trkpt>
      <trkpt lat="43.64675" lon="1.42284">
        <ele>69.275</ele>
        <time>2018-04-17T10:08:46Z</time>
      </trkpt>
      <trkpt lat="43.64673" lon="1.42309">
        <ele>70.876</ele>
        <time>2018-04-17T10:08:51Z</time>
      </trkpt>
      <trkpt lat="43.64671" lon="1.4234">
        <ele>70.496</ele>
        <time>2018-04-17T10:08:56Z</time>
      </trkpt>
      <trkpt lat="43.64668" lon="1.42374">
        <ele>70.277</ele>
        <time>2018-04-17T10:09:01Z</time>
      </trkpt>
      <trkpt lat="43.64666" lon="1.4241">
        <ele>69.92</ele>
        <time>2018-04-17T10:09:06Z</time>
      </trkpt>
      <trkpt lat="43.64664" lon="1.42448">
        <ele>68.953</ele>
        <time>2018-04-17T10:09:11Z</time>
      </trkpt>
      <trkpt lat="43.64663" lon="1.42483">
        <ele>68.572</ele>
        <time>2018-04-17T10:09:16Z</time>
      </trkpt>
      <trkpt lat="43.64661" lon="1.42513">
        <ele>68.831</ele>
        <time>2018-04-17T10:09:21Z</time>
      </trkpt>
      <trkpt lat="43.64658" lon="1.42538">
        <ele>68.089</ele>
        <time>2018-04-17T10:09:26Z</time>
      </trkpt>
      <trkpt lat="43.64656" lon="1.42557">
        <ele>67.571</ele>
        <time>2018-04-17T10:09:31Z</time>
      </trkpt>
      <trkpt lat="43.64645" lon="1.42576">
        <ele>67.891</ele>
        <time>2018-04-17T10:09:36Z</time>
      </trkpt>
      <trkpt lat="43.64651" lon="1.42601">
        <ele>68.805</ele>
        <time>2018-04-17T10:09:41Z</time>
      </trkpt>
      <trkpt lat="43.64655" lon="1.42635">
        <ele>70.345</ele>
        <time>2018-04-17T10:09:46Z</time>
      </trkpt>
      <trkpt lat="43.64653" lon="1.42665">
        <ele>68.321</ele>
        <time>2018-04-17T10:09:51Z</time>
      </trkpt>
      <trkpt lat="43.6465" lon="1.42693">
        <ele>68.078</ele>
        <time>2018-04-17T10:09:56Z</time>
      </trkpt>
      <trkpt lat="43.64629" lon="1.42704">
        <ele>68.348</ele>
        <time>2018-04-17T10:10:01Z</time>
      </trkpt>
      <trkpt lat="43.64604" lon="1.42714">
        <ele>69.162</ele>
        <time>2018-04-17T10:10:06Z</time>
      </trkpt>
      <trkpt lat="43.64604" lon="1.42742">
        <ele>68.797</ele>
        <time>2018-04-17T10:10:11Z</time>
      </trkpt>
      <trkpt lat="43.64608" lon="1.42778">
        <ele>68.905</ele>
        <time>2018-04-17T10:10:16Z</time>
      </trkpt>
      <trkpt lat="43.64611" lon="1.42809">
        <ele>68.176</ele>
        <time>2018-04-17T10:10:21Z</time>
      </trkpt>
      <trkpt lat="43.64614" lon="1.42897">
        <ele>69.666</ele>
        <time>2018-04-17T10:10:30Z</time>
      </trkpt>
      <trkpt lat="43.64616" lon="1.42931">
        <ele>70.002</ele>
        <time>2018-04-17T10:10:35Z</time>
      </trkpt>
      <trkpt lat="43.64629" lon="1.42953">
        <ele>71.011</ele>
        <time>2018-04-17T10:10:40Z</time>
      </trkpt>
      <trkpt lat="43.6465" lon="1.42946">
        <ele>68.86</ele>
        <time>2018-04-17T10:10:45Z</time>
      </trkpt>
      <trkpt lat="43.6466" lon="1.42975">
        <ele>70.321</ele>
        <time>2018-04-17T10:10:53Z</time>
      </trkpt>
      <trkpt lat="43.64661" lon="1.43018">
        <ele>70.488</ele>
        <time>2018-04-17T10:10:58Z</time>
      </trkpt>
      <trkpt lat="43.64662" lon="1.43061">
        <ele>71.474</ele>
        <time>2018-04-17T10:11:03Z</time>
      </trkpt>
      <trkpt lat="43.64664" lon="1.43104">
        <ele>72.089</ele>
        <time>2018-04-17T10:11:08Z</time>
      </trkpt>
      <trkpt lat="43.64667" lon="1.43146">
        <ele>71.738</ele>
        <time>2018-04-17T10:11:13Z</time>
      </trkpt>
      <trkpt lat="43.64672" lon="1.4319">
        <ele>72.166</ele>
        <time>2018-04-17T10:11:18Z</time>
      </trkpt>
      <trkpt lat="43.64676" lon="1.4323">
        <ele>72.723</ele>
        <time>2018-04-17T10:11:23Z</time>
      </trkpt>
      <trkpt lat="43.64678" lon="1.43264">
        <ele>72.168</ele>
        <time>2018-04-17T10:11:28Z</time>
      </trkpt>
      <trkpt lat="43.6468" lon="1.43307">
        <ele>73.978</ele>
        <time>2018-04-17T10:11:33Z</time>
      </trkpt>
      <trkpt lat="43.64685" lon="1.43349">
        <ele>73.069</ele>
        <time>2018-04-17T10:11:38Z</time>
      </trkpt>
      <trkpt lat="43.64687" lon="1.43394">
        <ele>72.546</ele>
        <time>2018-04-17T10:11:43Z</time>
      </trkpt>
      <trkpt lat="43.64688" lon="1.43439">
        <ele>72.602</ele>
        <time>2018-04-17T10:11:48Z</time>
      </trkpt>
      <trkpt lat="43.6469" lon="1.43484">
        <ele>72.24</ele>
        <time>2018-04-17T10:11:53Z</time>
      </trkpt>
      <trkpt lat="43.64694" lon="1.43527">
        <ele>72.427</ele>
        <time>2018-04-17T10:11:58Z</time>
      </trkpt>
      <trkpt lat="43.64694" lon="1.43569">
        <ele>72.528</ele>
        <time>2018-04-17T10:12:03Z</time>
      </trkpt>
      <trkpt lat="43.64696" lon="1.4361">
        <ele>72.544</ele>
        <time>2018-04-17T10:12:08Z</time>
      </trkpt>
      <trkpt lat="43.64699" lon="1.43649">
        <ele>73.22</ele>
        <time>2018-04-17T10:12:13Z</time>
      </trkpt>
      <trkpt lat="43.64703" lon="1.43687">
        <ele>72.834</ele>
        <time>2018-04-17T10:12:18Z</time>
      </trkpt>
      <trkpt lat="43.64705" lon="1.43724">
        <ele>72.327</ele>
        <time>2018-04-17T10:12:23Z</time>
      </trkpt>
      <trkpt lat="43.64708" lon="1.43759">
        <ele>71.804</ele>
        <time>2018-04-17T10:12:28Z</time>
      </trkpt>
      <trkpt lat="43.64711" lon="1.43796">
        <ele>71.936</ele>
        <time>2018-04-17T10:12:33Z</time>
      </trkpt>
      <trkpt lat="43.64722" lon="1.43828">
        <ele>72.11</ele>
        <time>2018-04-17T10:12:38Z</time>
      </trkpt>
      <trkpt lat="43.64718" lon="1.43857">
        <ele>71.666</ele>
        <time>2018-04-17T10:12:43Z</time>
      </trkpt>
      <trkpt lat="43.64713" lon="1.43883">
        <ele>71.146</ele>
        <time>2018-04-17T10:12:48Z</time>
      </trkpt>
      <trkpt lat="43.64705" lon="1.43898">
        <ele>70.657</ele>
        <time>2018-04-17T10:12:53Z</time>
      </trkpt>
      <trkpt lat="43.64696" lon="1.43936">
        <ele>72.485</ele>
        <time>2018-04-17T10:13:08Z</time>
      </trkpt>
      <trkpt lat="43.64684" lon="1.43959">
        <ele>71.574</ele>
        <time>2018-04-17T10:13:13Z</time>
      </trkpt>
      <trkpt lat="43.64675" lon="1.44022">
        <ele>72.668</ele>
        <time>2018-04-17T10:13:21Z</time>
      </trkpt>
      <trkpt lat="43.64671" lon="1.44058">
        <ele>73.141</ele>
        <time>2018-04-17T10:13:26Z</time>
      </trkpt>
      <trkpt lat="43.64666" lon="1.44094">
        <ele>73.941</ele>
        <time>2018-04-17T10:13:31Z</time>
      </trkpt>
      <trkpt lat="43.64662" lon="1.4413">
        <ele>73.915</ele>
        <time>2018-04-17T10:13:36Z</time>
      </trkpt>
      <trkpt lat="43.64657" lon="1.44166">
        <ele>73.817</ele>
        <time>2018-04-17T10:13:41Z</time>
      </trkpt>
      <trkpt lat="43.64653" lon="1.44198">
        <ele>72.866</ele>
        <time>2018-04-17T10:13:46Z</time>
      </trkpt>
      <trkpt lat="43.64634" lon="1.44227">
        <ele>73.233</ele>
        <time>2018-04-17T10:13:54Z</time>
      </trkpt>
      <trkpt lat="43.64628" lon="1.4426">
        <ele>73.476</ele>
        <time>2018-04-17T10:13:59Z</time>
      </trkpt>
      <trkpt lat="43.64623" lon="1.4429">
        <ele>74.15</ele>
        <time>2018-04-17T10:14:04Z</time>
      </trkpt>
      <trkpt lat="43.64619" lon="1.44318">
        <ele>73.31</ele>
        <time>2018-04-17T10:14:09Z</time>
      </trkpt>
      <trkpt lat="43.64617" lon="1.44344">
        <ele>72.456</ele>
        <time>2018-04-17T10:14:14Z</time>
      </trkpt>
      <trkpt lat="43.64613" lon="1.4437">
        <ele>71.254</ele>
        <time>2018-04-17T10:14:19Z</time>
      </trkpt>
      <trkpt lat="43.64612" lon="1.44381">
        <ele>70.591</ele>
        <time>2018-04-17T10:14:24Z</time>
      </trkpt>
      <trkpt lat="43.6461" lon="1.44392">
        <ele>71.003</ele>
        <time>2018-04-17T10:14:29Z</time>
      </trkpt>
      <trkpt lat="43.64616" lon="1.4441">
        <ele>71.841</ele>
        <time>2018-04-17T10:14:34Z</time>
      </trkpt>
      <trkpt lat="43.64621" lon="1.44439">
        <ele>72.279</ele>
        <time>2018-04-17T10:14:39Z</time>
      </trkpt>
      <trkpt lat="43.64605" lon="1.4446">
        <ele>71.563</ele>
        <time>2018-04-17T10:14:44Z</time>
      </trkpt>
      <trkpt lat="43.64596" lon="1.44471">
        <ele>71.442</ele>
        <time>2018-04-17T10:14:49Z</time>
      </trkpt>
      <trkpt lat="43.64584" lon="1.44486">
        <ele>71.888</ele>
        <time>2018-04-17T10:14:54Z</time>
      </trkpt>
      <trkpt lat="43.64567" lon="1.44506">
        <ele>71.96</ele>
        <time>2018-04-17T10:14:59Z</time>
      </trkpt>
      <trkpt lat="43.64549" lon="1.44528">
        <ele>72.187</ele>
        <time>2018-04-17T10:15:04Z</time>
      </trkpt>
      <trkpt lat="43.6453" lon="1.44552">
        <ele>72.932</ele>
        <time>2018-04-17T10:15:09Z</time>
      </trkpt>
      <trkpt lat="43.6451" lon="1.44574">
        <ele>73.064</ele>
        <time>2018-04-17T10:15:14Z</time>
      </trkpt>
      <trkpt lat="43.64491" lon="1.44598">
        <ele>73.025</ele>
        <time>2018-04-17T10:15:19Z</time>
      </trkpt>
      <trkpt lat="43.64474" lon="1.44624">
        <ele>74.002</ele>
        <time>2018-04-17T10:15:24Z</time>
      </trkpt>
      <trkpt lat="43.64455" lon="1.44647">
        <ele>73.571</ele>
        <time>2018-04-17T10:15:29Z</time>
      </trkpt>
      <trkpt lat="43.64434" lon="1.44669">
        <ele>73.291</ele>
        <time>2018-04-17T10:15:34Z</time>
      </trkpt>
      <trkpt lat="43.64416" lon="1.44692">
        <ele>74.338</ele>
        <time>2018-04-17T10:15:39Z</time>
      </trkpt>
      <trkpt lat="43.64399" lon="1.44716">
        <ele>73.749</ele>
        <time>2018-04-17T10:15:44Z</time>
      </trkpt>
      <trkpt lat="43.64381" lon="1.44736">
        <ele>73.64</ele>
        <time>2018-04-17T10:15:49Z</time>
      </trkpt>
      <trkpt lat="43.64363" lon="1.4476">
        <ele>72.847</ele>
        <time>2018-04-17T10:15:54Z</time>
      </trkpt>
      <trkpt lat="43.64346" lon="1.44785">
        <ele>72.491</ele>
        <time>2018-04-17T10:15:59Z</time>
      </trkpt>
      <trkpt lat="43.64327" lon="1.44809">
        <ele>72.644</ele>
        <time>2018-04-17T10:16:04Z</time>
      </trkpt>
      <trkpt lat="43.64307" lon="1.44832">
        <ele>73.096</ele>
        <time>2018-04-17T10:16:09Z</time>
      </trkpt>
      <trkpt lat="43.64288" lon="1.44854">
        <ele>72.781</ele>
        <time>2018-04-17T10:16:14Z</time>
      </trkpt>
      <trkpt lat="43.64248" lon="1.44898">
        <ele>73.244</ele>
        <time>2018-04-17T10:16:22Z</time>
      </trkpt>
      <trkpt lat="43.64229" lon="1.44922">
        <ele>73.751</ele>
        <time>2018-04-17T10:16:27Z</time>
      </trkpt>
      <trkpt lat="43.64213" lon="1.44946">
        <ele>73.067</ele>
        <time>2018-04-17T10:16:32Z</time>
      </trkpt>
      <trkpt lat="43.64188" lon="1.44939">
        <ele>72.752</ele>
        <time>2018-04-17T10:16:37Z</time>
      </trkpt>
      <trkpt lat="43.64162" lon="1.44923">
        <ele>73.13</ele>
        <time>2018-04-17T10:16:42Z</time>
      </trkpt>
      <trkpt lat="43.64137" lon="1.44909">
        <ele>73.315</ele>
        <time>2018-04-17T10:16:47Z</time>
      </trkpt>
      <trkpt lat="43.64117" lon="1.44894">
        <ele>73.709</ele>
        <time>2018-04-17T10:16:53Z</time>
      </trkpt>
      <trkpt lat="43.641" lon="1.44896">
        <ele>73.484</ele>
        <time>2018-04-17T10:16:58Z</time>
      </trkpt>
      <trkpt lat="43.64101" lon="1.44931">
        <ele>73.59</ele>
        <time>2018-04-17T10:17:03Z</time>
      </trkpt>
      <trkpt lat="43.64102" lon="1.44966">
        <ele>73.849</ele>
        <time>2018-04-17T10:17:08Z</time>
      </trkpt>
      <trkpt lat="43.6409" lon="1.44992">
        <ele>74.562</ele>
        <time>2018-04-17T10:17:13Z</time>
      </trkpt>
      <trkpt lat="43.64088" lon="1.45021">
        <ele>73.981</ele>
        <time>2018-04-17T10:17:18Z</time>
      </trkpt>
      <trkpt lat="43.64083" lon="1.45047">
        <ele>73.955</ele>
        <time>2018-04-17T10:17:23Z</time>
      </trkpt>
      <trkpt lat="43.6407" lon="1.45077">
        <ele>73.172</ele>
        <time>2018-04-17T10:17:28Z</time>
      </trkpt>
      <trkpt lat="43.64056" lon="1.45091">
        <ele>71.954</ele>
        <time>2018-04-17T10:17:33Z</time>
      </trkpt>
      <trkpt lat="43.64053" lon="1.45097">
        <ele>72.319</ele>
        <time>2018-04-17T10:17:38Z</time>
      </trkpt>
      <trkpt lat="43.64044" lon="1.45108">
        <ele>72.906</ele>
        <time>2018-04-17T10:17:43Z</time>
      </trkpt>
      <trkpt lat="43.64033" lon="1.45134">
        <ele>73.257</ele>
        <time>2018-04-17T10:17:48Z</time>
      </trkpt>
      <trkpt lat="43.64017" lon="1.45162">
        <ele>73.651</ele>
        <time>2018-04-17T10:17:53Z</time>
      </trkpt>
      <trkpt lat="43.64003" lon="1.45193">
        <ele>73.717</ele>
        <time>2018-04-17T10:17:58Z</time>
      </trkpt>
      <trkpt lat="43.63984" lon="1.45213">
        <ele>73.093</ele>
        <time>2018-04-17T10:18:03Z</time>
      </trkpt>
      <trkpt lat="43.63963" lon="1.45243">
        <ele>72.639</ele>
        <time>2018-04-17T10:18:08Z</time>
      </trkpt>
      <trkpt lat="43.63939" lon="1.45254">
        <ele>73.756</ele>
        <time>2018-04-17T10:18:13Z</time>
      </trkpt>
      <trkpt lat="43.63921" lon="1.45254">
        <ele>72.821</ele>
        <time>2018-04-17T10:18:18Z</time>
      </trkpt>
      <trkpt lat="43.63904" lon="1.45254">
        <ele>73.844</ele>
        <time>2018-04-17T10:18:23Z</time>
      </trkpt>
      <trkpt lat="43.63887" lon="1.45248">
        <ele>74.457</ele>
        <time>2018-04-17T10:18:28Z</time>
      </trkpt>
      <trkpt lat="43.63867" lon="1.45247">
        <ele>73.616</ele>
        <time>2018-04-17T10:18:33Z</time>
      </trkpt>
      <trkpt lat="43.63845" lon="1.4525">
        <ele>73.664</ele>
        <time>2018-04-17T10:18:38Z</time>
      </trkpt>
      <trkpt lat="43.63823" lon="1.4525">
        <ele>73.722</ele>
        <time>2018-04-17T10:18:43Z</time>
      </trkpt>
      <trkpt lat="43.63799" lon="1.4525">
        <ele>72.964</ele>
        <time>2018-04-17T10:18:48Z</time>
      </trkpt>
      <trkpt lat="43.63773" lon="1.45251">
        <ele>73.172</ele>
        <time>2018-04-17T10:18:53Z</time>
      </trkpt>
      <trkpt lat="43.63747" lon="1.45251">
        <ele>72.94</ele>
        <time>2018-04-17T10:18:58Z</time>
      </trkpt>
      <trkpt lat="43.63723" lon="1.45252">
        <ele>73.04</ele>
        <time>2018-04-17T10:19:03Z</time>
      </trkpt>
      <trkpt lat="43.63699" lon="1.45254">
        <ele>72.821</ele>
        <time>2018-04-17T10:19:08Z</time>
      </trkpt>
      <trkpt lat="43.63673" lon="1.45256">
        <ele>73.661</ele>
        <time>2018-04-17T10:19:13Z</time>
      </trkpt>
      <trkpt lat="43.63647" lon="1.45256">
        <ele>73.149</ele>
        <time>2018-04-17T10:19:18Z</time>
      </trkpt>
      <trkpt lat="43.6362" lon="1.45254">
        <ele>73.812</ele>
        <time>2018-04-17T10:19:23Z</time>
      </trkpt>
      <trkpt lat="43.63594" lon="1.45255">
        <ele>73.849</ele>
        <time>2018-04-17T10:19:28Z</time>
      </trkpt>
      <trkpt lat="43.63569" lon="1.45254">
        <ele>72.774</ele>
        <time>2018-04-17T10:19:33Z</time>
      </trkpt>
      <trkpt lat="43.63546" lon="1.45255">
        <ele>73.12</ele>
        <time>2018-04-17T10:19:38Z</time>
      </trkpt>
      <trkpt lat="43.63526" lon="1.4525">
        <ele>72.145</ele>
        <time>2018-04-17T10:19:43Z</time>
      </trkpt>
      <trkpt lat="43.63508" lon="1.45234">
        <ele>73.059</ele>
        <time>2018-04-17T10:19:53Z</time>
      </trkpt>
      <trkpt lat="43.63489" lon="1.45216">
        <ele>74.081</ele>
        <time>2018-04-17T10:19:58Z</time>
      </trkpt>
      <trkpt lat="43.63466" lon="1.45194">
        <ele>75.017</ele>
        <time>2018-04-17T10:20:03Z</time>
      </trkpt>
      <trkpt lat="43.63441" lon="1.45173">
        <ele>74.747</ele>
        <time>2018-04-17T10:20:08Z</time>
      </trkpt>
      <trkpt lat="43.63419" lon="1.45152">
        <ele>74.325</ele>
        <time>2018-04-17T10:20:13Z</time>
      </trkpt>
      <trkpt lat="43.634" lon="1.45128">
        <ele>74.747</ele>
        <time>2018-04-17T10:20:18Z</time>
      </trkpt>
      <trkpt lat="43.63378" lon="1.45107">
        <ele>74.19</ele>
        <time>2018-04-17T10:20:23Z</time>
      </trkpt>
      <trkpt lat="43.63358" lon="1.45088">
        <ele>74.525</ele>
        <time>2018-04-17T10:20:28Z</time>
      </trkpt>
      <trkpt lat="43.63328" lon="1.4506">
        <ele>74.52</ele>
        <time>2018-04-17T10:20:34Z</time>
      </trkpt>
      <trkpt lat="43.63305" lon="1.45039">
        <ele>74.639</ele>
        <time>2018-04-17T10:20:39Z</time>
      </trkpt>
      <trkpt lat="43.63282" lon="1.45017">
        <ele>74.599</ele>
        <time>2018-04-17T10:20:44Z</time>
      </trkpt>
      <trkpt lat="43.63261" lon="1.44998">
        <ele>74.063</ele>
        <time>2018-04-17T10:20:49Z</time>
      </trkpt>
      <trkpt lat="43.63238" lon="1.44975">
        <ele>74.208</ele>
        <time>2018-04-17T10:20:54Z</time>
      </trkpt>
      <trkpt lat="43.63215" lon="1.44956">
        <ele>73.741</ele>
        <time>2018-04-17T10:20:59Z</time>
      </trkpt>
      <trkpt lat="43.63191" lon="1.4494">
        <ele>73.704</ele>
        <time>2018-04-17T10:21:04Z</time>
      </trkpt>
      <trkpt lat="43.63164" lon="1.44932">
        <ele>73.989</ele>
        <time>2018-04-17T10:21:09Z</time>
      </trkpt>
      <trkpt lat="43.63136" lon="1.44929">
        <ele>73.875</ele>
        <time>2018-04-17T10:21:14Z</time>
      </trkpt>
      <trkpt lat="43.63108" lon="1.4493">
        <ele>74.184</ele>
        <time>2018-04-17T10:21:19Z</time>
      </trkpt>
      <trkpt lat="43.63079" lon="1.44931">
        <ele>74.75</ele>
        <time>2018-04-17T10:21:24Z</time>
      </trkpt>
      <trkpt lat="43.63049" lon="1.44933">
        <ele>74.509</ele>
        <time>2018-04-17T10:21:29Z</time>
      </trkpt>
      <trkpt lat="43.63022" lon="1.44934">
        <ele>74.092</ele>
        <time>2018-04-17T10:21:34Z</time>
      </trkpt>
      <trkpt lat="43.63001" lon="1.44925">
        <ele>74.253</ele>
        <time>2018-04-17T10:21:39Z</time>
      </trkpt>
      <trkpt lat="43.62984" lon="1.44908">
        <ele>73.825</ele>
        <time>2018-04-17T10:21:44Z</time>
      </trkpt>
      <trkpt lat="43.62969" lon="1.44891">
        <ele>73.82</ele>
        <time>2018-04-17T10:21:49Z</time>
      </trkpt>
      <trkpt lat="43.62959" lon="1.4488">
        <ele>73.188</ele>
        <time>2018-04-17T10:21:54Z</time>
      </trkpt>
      <trkpt lat="43.62964" lon="1.44868">
        <ele>73.249</ele>
        <time>2018-04-17T10:21:59Z</time>
      </trkpt>
      <trkpt lat="43.62976" lon="1.44846">
        <ele>73.426</ele>
        <time>2018-04-17T10:22:04Z</time>
      </trkpt>
      <trkpt lat="43.62986" lon="1.44823">
        <ele>73.188</ele>
        <time>2018-04-17T10:22:09Z</time>
      </trkpt>
      <trkpt lat="43.62988" lon="1.44796">
        <ele>73.677</ele>
        <time>2018-04-17T10:22:14Z</time>
      </trkpt>
      <trkpt lat="43.6297" lon="1.44776">
        <ele>72.995</ele>
        <time>2018-04-17T10:22:19Z</time>
      </trkpt>
      <trkpt lat="43.62961" lon="1.44755">
        <ele>73.659</ele>
        <time>2018-04-17T10:22:24Z</time>
      </trkpt>
      <trkpt lat="43.62963" lon="1.44727">
        <ele>73.194</ele>
        <time>2018-04-17T10:22:29Z</time>
      </trkpt>
      <trkpt lat="43.62966" lon="1.44699">
        <ele>73.328</ele>
        <time>2018-04-17T10:22:34Z</time>
      </trkpt>
      <trkpt lat="43.62966" lon="1.44673">
        <ele>73.429</ele>
        <time>2018-04-17T10:22:39Z</time>
      </trkpt>
      <trkpt lat="43.62962" lon="1.4465">
        <ele>73.881</ele>
        <time>2018-04-17T10:22:44Z</time>
      </trkpt>
      <trkpt lat="43.62965" lon="1.44627">
        <ele>73.598</ele>
        <time>2018-04-17T10:22:49Z</time>
      </trkpt>
      <trkpt lat="43.62981" lon="1.44626">
        <ele>73.286</ele>
        <time>2018-04-17T10:22:54Z</time>
      </trkpt>
      <trkpt lat="43.62992" lon="1.44684">
        <ele>73.434</ele>
        <time>2018-04-17T10:23:03Z</time>
      </trkpt>
      <trkpt lat="43.63013" lon="1.44695">
        <ele>73.466</ele>
        <time>2018-04-17T10:23:08Z</time>
      </trkpt>
      <trkpt lat="43.63029" lon="1.44665">
        <ele>74.253</ele>
        <time>2018-04-17T10:23:13Z</time>
      </trkpt>
      <trkpt lat="43.63043" lon="1.44637">
        <ele>75.31</ele>
        <time>2018-04-17T10:23:18Z</time>
      </trkpt>
      <trkpt lat="43.63057" lon="1.44608">
        <ele>74.282</ele>
        <time>2018-04-17T10:23:23Z</time>
      </trkpt>
      <trkpt lat="43.63068" lon="1.44582">
        <ele>73.339</ele>
        <time>2018-04-17T10:23:30Z</time>
      </trkpt>
      <trkpt lat="43.63061" lon="1.44559">
        <ele>73.397</ele>
        <time>2018-04-17T10:23:35Z</time>
      </trkpt>
      <trkpt lat="43.63048" lon="1.44546">
        <ele>73.352</ele>
        <time>2018-04-17T10:23:40Z</time>
      </trkpt>
      <trkpt lat="43.63039" lon="1.4454">
        <ele>73.151</ele>
        <time>2018-04-17T10:23:45Z</time>
      </trkpt>
      <trkpt lat="43.63038" lon="1.44549">
        <ele>73.355</ele>
        <time>2018-04-17T10:23:50Z</time>
      </trkpt>
      <trkpt lat="43.6304" lon="1.44559">
        <ele>73.318</ele>
        <time>2018-04-17T10:23:55Z</time>
      </trkpt>
      <trkpt lat="43.63033" lon="1.44568">
        <ele>73.471</ele>
        <time>2018-04-17T10:24:00Z</time>
      </trkpt>
      <trkpt lat="43.63028" lon="1.44566">
        <ele>73.608</ele>
        <time>2018-04-17T10:24:09Z</time>
      </trkpt>
    </trkseg>
  </trk>
</gpx>